<?xml version="1.0" encoding="UTF-8" standalone="no" ?>
<gpx xmlns="http://www.topografix.com/GPX/1/1" xmlns:xsi="http://www.w3.org/2001/XMLSchema-instance" xsi:schemaLocation="http://www.topografix.com/GPX/1/1 http://www.topografix.com/GPX/1/1/gpx.xsd" version="1.1" creator="VisuGPX - https://www.visugpx.com">
  <metadata>
    <name>Castelnau Magnoac / Trie sur Baïse</name>
  </metadata>
  <trk>
    <name><![CDATA[Mazeres - Castelnau Magnoac / Trie sur Baïse]]></name>
    <trkseg>
      <trkpt lat="43.30678" lon="0.50369">
        <ele>301.674081</ele>
        <time>2022-07-25T06:28:15.807Z</time>
      </trkpt>
      <trkpt lat="43.30726" lon="0.50228">
        <ele>302.193137</ele>
        <time>2022-07-25T06:30:25.480Z</time>
      </trkpt>
      <trkpt lat="43.3073" lon="0.50226">
        <ele>302.295973</ele>
        <time>2022-07-25T06:30:30.605Z</time>
      </trkpt>
      <trkpt lat="43.30742" lon="0.50236">
        <ele>302.607826</ele>
        <time>2022-07-25T06:30:47.615Z</time>
      </trkpt>
      <trkpt lat="43.30764" lon="0.50294">
        <ele>303.665228</ele>
        <time>2022-07-25T06:31:46.075Z</time>
      </trkpt>
      <trkpt lat="43.30764" lon="0.50294">
        <ele>303.665228</ele>
        <time>2022-07-25T06:31:46.075Z</time>
      </trkpt>
      <trkpt lat="43.30769" lon="0.50311">
        <ele>303.959156</ele>
        <time>2022-07-25T06:32:02.086Z</time>
      </trkpt>
      <trkpt lat="43.30792" lon="0.50011">
        <ele>310.325888</ele>
        <time>2022-07-25T06:33:28.791Z</time>
      </trkpt>
      <trkpt lat="43.30833" lon="0.49853">
        <ele>313.87513</ele>
        <time>2022-07-25T06:34:14.984Z</time>
      </trkpt>
      <trkpt lat="43.30874" lon="0.4974">
        <ele>316.414331</ele>
        <time>2022-07-25T06:34:45.077Z</time>
      </trkpt>
      <trkpt lat="43.30908" lon="0.49526">
        <ele>322.498931</ele>
        <time>2022-07-25T06:35:48.960Z</time>
      </trkpt>
      <trkpt lat="43.30927" lon="0.49342">
        <ele>330.321436</ele>
        <time>2022-07-25T06:37:04.036Z</time>
      </trkpt>
      <trkpt lat="43.30934" lon="0.49286">
        <ele>332.880125</ele>
        <time>2022-07-25T06:37:28.989Z</time>
      </trkpt>
      <trkpt lat="43.30982" lon="0.49099">
        <ele>340.342071</ele>
        <time>2022-07-25T06:38:49.005Z</time>
      </trkpt>
      <trkpt lat="43.30998" lon="0.49086">
        <ele>341.279506</ele>
        <time>2022-07-25T06:38:57.068Z</time>
      </trkpt>
      <trkpt lat="43.31033" lon="0.49011">
        <ele>343.106086</ele>
        <time>2022-07-25T06:39:21.136Z</time>
      </trkpt>
      <trkpt lat="43.31081" lon="0.48925">
        <ele>341.934492</ele>
        <time>2022-07-25T06:39:38.441Z</time>
      </trkpt>
      <trkpt lat="43.31092" lon="0.4889">
        <ele>341.515244</ele>
        <time>2022-07-25T06:39:42.443Z</time>
      </trkpt>
      <trkpt lat="43.31096" lon="0.48855">
        <ele>341.127892</ele>
        <time>2022-07-25T06:39:45.820Z</time>
      </trkpt>
      <trkpt lat="43.31083" lon="0.48764">
        <ele>338.560091</ele>
        <time>2022-07-25T06:39:54.421Z</time>
      </trkpt>
      <trkpt lat="43.31043" lon="0.48681">
        <ele>334.656028</ele>
        <time>2022-07-25T06:40:04.049Z</time>
      </trkpt>
      <trkpt lat="43.31042" lon="0.48655">
        <ele>333.644884</ele>
        <time>2022-07-25T06:40:06.505Z</time>
      </trkpt>
      <trkpt lat="43.31048" lon="0.48644">
        <ele>333.132647</ele>
        <time>2022-07-25T06:40:07.789Z</time>
      </trkpt>
      <trkpt lat="43.31057" lon="0.48641">
        <ele>332.660609</ele>
        <time>2022-07-25T06:40:08.942Z</time>
      </trkpt>
      <trkpt lat="43.31065" lon="0.48645">
        <ele>332.175337</ele>
        <time>2022-07-25T06:40:10.108Z</time>
      </trkpt>
      <trkpt lat="43.31083" lon="0.4867">
        <ele>330.763951</ele>
        <time>2022-07-25T06:40:13.488Z</time>
      </trkpt>
      <trkpt lat="43.31096" lon="0.48691">
        <ele>329.578746</ele>
        <time>2022-07-25T06:40:16.056Z</time>
      </trkpt>
      <trkpt lat="43.31115" lon="0.48704">
        <ele>328.274447</ele>
        <time>2022-07-25T06:40:18.877Z</time>
      </trkpt>
      <trkpt lat="43.31126" lon="0.48701">
        <ele>327.629137</ele>
        <time>2022-07-25T06:40:20.273Z</time>
      </trkpt>
      <trkpt lat="43.31142" lon="0.4868">
        <ele>326.315481</ele>
        <time>2022-07-25T06:40:23.121Z</time>
      </trkpt>
      <trkpt lat="43.31174" lon="0.48548">
        <ele>320.189117</ele>
        <time>2022-07-25T06:40:36.275Z</time>
      </trkpt>
      <trkpt lat="43.31188" lon="0.48469">
        <ele>314.874433</ele>
        <time>2022-07-25T06:40:43.456Z</time>
      </trkpt>
      <trkpt lat="43.31245" lon="0.48368">
        <ele>306.49291</ele>
        <time>2022-07-25T06:40:54.789Z</time>
      </trkpt>
      <trkpt lat="43.31266" lon="0.48353">
        <ele>304.386746</ele>
        <time>2022-07-25T06:40:57.605Z</time>
      </trkpt>
      <trkpt lat="43.31297" lon="0.48341">
        <ele>301.82018</ele>
        <time>2022-07-25T06:41:01.414Z</time>
      </trkpt>
      <trkpt lat="43.31326" lon="0.48309">
        <ele>298.757778</ele>
        <time>2022-07-25T06:41:06.075Z</time>
      </trkpt>
      <trkpt lat="43.31342" lon="0.48263">
        <ele>295.794305</ele>
        <time>2022-07-25T06:41:10.628Z</time>
      </trkpt>
      <trkpt lat="43.31338" lon="0.48198">
        <ele>291.962449</ele>
        <time>2022-07-25T06:41:16.564Z</time>
      </trkpt>
      <trkpt lat="43.31338" lon="0.48177">
        <ele>290.713352</ele>
        <time>2022-07-25T06:41:18.492Z</time>
      </trkpt>
      <trkpt lat="43.31348" lon="0.48154">
        <ele>289.298699</ele>
        <time>2022-07-25T06:41:20.962Z</time>
      </trkpt>
      <trkpt lat="43.31457" lon="0.48008">
        <ele>280.185946</ele>
        <time>2022-07-25T06:41:40.412Z</time>
      </trkpt>
      <trkpt lat="43.31551" lon="0.47654">
        <ele>269.363562</ele>
        <time>2022-07-25T06:42:17.660Z</time>
      </trkpt>
      <trkpt lat="43.31566" lon="0.47592">
        <ele>268.098342</ele>
        <time>2022-07-25T06:42:24.819Z</time>
      </trkpt>
      <trkpt lat="43.31571" lon="0.47549">
        <ele>267.254134</ele>
        <time>2022-07-25T06:42:29.819Z</time>
      </trkpt>
      <trkpt lat="43.31572" lon="0.47528">
        <ele>266.842127</ele>
        <time>2022-07-25T06:42:32.330Z</time>
      </trkpt>
      <trkpt lat="43.31581" lon="0.47479">
        <ele>266.532529</ele>
        <time>2022-07-25T06:42:38.607Z</time>
      </trkpt>
      <trkpt lat="43.31646" lon="0.47314">
        <ele>266.569254</ele>
        <time>2022-07-25T06:43:07.719Z</time>
      </trkpt>
      <trkpt lat="43.31655" lon="0.47225">
        <ele>266.923361</ele>
        <time>2022-07-25T06:43:25.787Z</time>
      </trkpt>
      <trkpt lat="43.31657" lon="0.47094">
        <ele>267.627415</ele>
        <time>2022-07-25T06:43:52.216Z</time>
      </trkpt>
      <trkpt lat="43.3166" lon="0.47037">
        <ele>267.834853</ele>
        <time>2022-07-25T06:44:01.365Z</time>
      </trkpt>
      <trkpt lat="43.31673" lon="0.46978">
        <ele>267.003745</ele>
        <time>2022-07-25T06:44:09.735Z</time>
      </trkpt>
      <trkpt lat="43.31751" lon="0.46695">
        <ele>262.841851</ele>
        <time>2022-07-25T06:44:42.032Z</time>
      </trkpt>
      <trkpt lat="43.31754" lon="0.4666">
        <ele>262.319559</ele>
        <time>2022-07-25T06:44:45.964Z</time>
      </trkpt>
      <trkpt lat="43.31767" lon="0.4644">
        <ele>260.492616</ele>
        <time>2022-07-25T06:45:13.304Z</time>
      </trkpt>
      <trkpt lat="43.31809" lon="0.46258">
        <ele>260.154575</ele>
        <time>2022-07-25T06:45:42.046Z</time>
      </trkpt>
      <trkpt lat="43.31807" lon="0.46227">
        <ele>260.213937</ele>
        <time>2022-07-25T06:45:46.975Z</time>
      </trkpt>
      <trkpt lat="43.31791" lon="0.46188">
        <ele>260.298706</ele>
        <time>2022-07-25T06:45:54.047Z</time>
      </trkpt>
      <trkpt lat="43.31788" lon="0.46158">
        <ele>260.35445</ele>
        <time>2022-07-25T06:45:58.890Z</time>
      </trkpt>
      <trkpt lat="43.31815" lon="0.45989">
        <ele>261.369159</ele>
        <time>2022-07-25T06:46:28.895Z</time>
      </trkpt>
      <trkpt lat="43.31824" lon="0.45869">
        <ele>262.369053</ele>
        <time>2022-07-25T06:46:52.577Z</time>
      </trkpt>
      <trkpt lat="43.31822" lon="0.45721">
        <ele>265.862785</ele>
        <time>2022-07-25T06:47:32.959Z</time>
      </trkpt>
      <trkpt lat="43.31872" lon="0.45499">
        <ele>272.510546</ele>
        <time>2022-07-25T06:48:50.841Z</time>
      </trkpt>
      <trkpt lat="43.31889" lon="0.45402">
        <ele>275.656131</ele>
        <time>2022-07-25T06:49:23.571Z</time>
      </trkpt>
      <trkpt lat="43.31894" lon="0.45383">
        <ele>276.283812</ele>
        <time>2022-07-25T06:49:30.011Z</time>
      </trkpt>
      <trkpt lat="43.31904" lon="0.45367">
        <ele>276.915255</ele>
        <time>2022-07-25T06:49:37.072Z</time>
      </trkpt>
      <trkpt lat="43.31963" lon="0.45345">
        <ele>278.94721</ele>
        <time>2022-07-25T06:50:02.098Z</time>
      </trkpt>
      <trkpt lat="43.31973" lon="0.4533">
        <ele>279.435378</ele>
        <time>2022-07-25T06:50:07.762Z</time>
      </trkpt>
      <trkpt lat="43.31997" lon="0.4524">
        <ele>281.736234</ele>
        <time>2022-07-25T06:50:34.280Z</time>
      </trkpt>
      <trkpt lat="43.32032" lon="0.45127">
        <ele>284.415829</ele>
        <time>2022-07-25T06:51:06.110Z</time>
      </trkpt>
      <trkpt lat="43.3205" lon="0.4511">
        <ele>285.042082</ele>
        <time>2022-07-25T06:51:14.312Z</time>
      </trkpt>
      <trkpt lat="43.32064" lon="0.45108">
        <ele>285.423848</ele>
        <time>2022-07-25T06:51:18.907Z</time>
      </trkpt>
      <trkpt lat="43.32172" lon="0.45112">
        <ele>288.698943</ele>
        <time>2022-07-25T06:51:59.681Z</time>
      </trkpt>
      <trkpt lat="43.32228" lon="0.45079">
        <ele>290.844418</ele>
        <time>2022-07-25T06:52:23.076Z</time>
      </trkpt>
      <trkpt lat="43.32254" lon="0.45054">
        <ele>291.982018</ele>
        <time>2022-07-25T06:52:36.067Z</time>
      </trkpt>
      <trkpt lat="43.32274" lon="0.45007">
        <ele>293.394761</ele>
        <time>2022-07-25T06:52:52.917Z</time>
      </trkpt>
      <trkpt lat="43.32278" lon="0.44991">
        <ele>293.830154</ele>
        <time>2022-07-25T06:52:58.829Z</time>
      </trkpt>
      <trkpt lat="43.32307" lon="0.44876">
        <ele>296.939487</ele>
        <time>2022-07-25T06:53:37.613Z</time>
      </trkpt>
      <trkpt lat="43.32334" lon="0.44835">
        <ele>298.355758</ele>
        <time>2022-07-25T06:53:54.113Z</time>
      </trkpt>
      <trkpt lat="43.32376" lon="0.44791">
        <ele>300.216449</ele>
        <time>2022-07-25T06:54:13.878Z</time>
      </trkpt>
      <trkpt lat="43.32393" lon="0.44784">
        <ele>300.682585</ele>
        <time>2022-07-25T06:54:19.962Z</time>
      </trkpt>
      <trkpt lat="43.32425" lon="0.44784">
        <ele>301.28244</ele>
        <time>2022-07-25T06:54:30.966Z</time>
      </trkpt>
      <trkpt lat="43.32469" lon="0.44736">
        <ele>302.338766</ele>
        <time>2022-07-25T06:54:49.769Z</time>
      </trkpt>
      <trkpt lat="43.32511" lon="0.44734">
        <ele>303.119504</ele>
        <time>2022-07-25T06:55:02.255Z</time>
      </trkpt>
      <trkpt lat="43.32523" lon="0.44719">
        <ele>303.428975</ele>
        <time>2022-07-25T06:55:07.008Z</time>
      </trkpt>
      <trkpt lat="43.32537" lon="0.44672">
        <ele>303.90354</ele>
        <time>2022-07-25T06:55:16.482Z</time>
      </trkpt>
      <trkpt lat="43.32557" lon="0.44604">
        <ele>303.920904</ele>
        <time>2022-07-25T06:55:29.069Z</time>
      </trkpt>
      <trkpt lat="43.32587" lon="0.44577">
        <ele>303.932479</ele>
        <time>2022-07-25T06:55:36.607Z</time>
      </trkpt>
      <trkpt lat="43.32672" lon="0.44573">
        <ele>303.845671</ele>
        <time>2022-07-25T06:55:52.607Z</time>
      </trkpt>
      <trkpt lat="43.32709" lon="0.44549">
        <ele>303.122527</ele>
        <time>2022-07-25T06:55:59.554Z</time>
      </trkpt>
      <trkpt lat="43.32726" lon="0.44546">
        <ele>302.8174</ele>
        <time>2022-07-25T06:56:02.309Z</time>
      </trkpt>
      <trkpt lat="43.32753" lon="0.44557">
        <ele>302.312124</ele>
        <time>2022-07-25T06:56:06.737Z</time>
      </trkpt>
      <trkpt lat="43.3277" lon="0.44596">
        <ele>301.726495</ele>
        <time>2022-07-25T06:56:11.720Z</time>
      </trkpt>
      <trkpt lat="43.32774" lon="0.44638">
        <ele>301.166935</ele>
        <time>2022-07-25T06:56:16.357Z</time>
      </trkpt>
      <trkpt lat="43.3279" lon="0.44673">
        <ele>300.590108</ele>
        <time>2022-07-25T06:56:20.745Z</time>
      </trkpt>
      <trkpt lat="43.32812" lon="0.44686">
        <ele>300.012828</ele>
        <time>2022-07-25T06:56:24.179Z</time>
      </trkpt>
      <trkpt lat="43.32894" lon="0.44656">
        <ele>297.957334</ele>
        <time>2022-07-25T06:56:36.753Z</time>
      </trkpt>
      <trkpt lat="43.32902" lon="0.44646">
        <ele>297.686548</ele>
        <time>2022-07-25T06:56:38.417Z</time>
      </trkpt>
      <trkpt lat="43.32928" lon="0.44578">
        <ele>296.318991</ele>
        <time>2022-07-25T06:56:46.801Z</time>
      </trkpt>
      <trkpt lat="43.32937" lon="0.4457">
        <ele>295.935916</ele>
        <time>2022-07-25T06:56:48.513Z</time>
      </trkpt>
      <trkpt lat="43.32953" lon="0.44568">
        <ele>295.401804</ele>
        <time>2022-07-25T06:56:50.961Z</time>
      </trkpt>
      <trkpt lat="43.32972" lon="0.44573">
        <ele>294.752165</ele>
        <time>2022-07-25T06:56:53.777Z</time>
      </trkpt>
      <trkpt lat="43.33042" lon="0.44616">
        <ele>292.172464</ele>
        <time>2022-07-25T06:57:04.758Z</time>
      </trkpt>
      <trkpt lat="43.33088" lon="0.44629">
        <ele>290.573689</ele>
        <time>2022-07-25T06:57:11.254Z</time>
      </trkpt>
      <trkpt lat="43.33167" lon="0.44624">
        <ele>285.691029</ele>
        <time>2022-07-25T06:57:21.370Z</time>
      </trkpt>
      <trkpt lat="43.33273" lon="0.446">
        <ele>278.596349</ele>
        <time>2022-07-25T06:57:34.958Z</time>
      </trkpt>
      <trkpt lat="43.33302" lon="0.44602">
        <ele>275.811491</ele>
        <time>2022-07-25T06:57:38.442Z</time>
      </trkpt>
      <trkpt lat="43.3333" lon="0.44618">
        <ele>272.701873</ele>
        <time>2022-07-25T06:57:42.266Z</time>
      </trkpt>
      <trkpt lat="43.33416" lon="0.44618">
        <ele>264.161298</ele>
        <time>2022-07-25T06:57:52.499Z</time>
      </trkpt>
      <trkpt lat="43.33512" lon="0.44641">
        <ele>253.630589</ele>
        <time>2022-07-25T06:58:04.055Z</time>
      </trkpt>
      <trkpt lat="43.33531" lon="0.4463">
        <ele>251.351225</ele>
        <time>2022-07-25T06:58:06.435Z</time>
      </trkpt>
      <trkpt lat="43.33541" lon="0.44574">
        <ele>246.642056</ele>
        <time>2022-07-25T06:58:11.400Z</time>
      </trkpt>
      <trkpt lat="43.33592" lon="0.44337">
        <ele>232.230422</ele>
        <time>2022-07-25T06:58:33.455Z</time>
      </trkpt>
      <trkpt lat="43.33611" lon="0.44293">
        <ele>229.798154</ele>
        <time>2022-07-25T06:58:38.801Z</time>
      </trkpt>
      <trkpt lat="43.33657" lon="0.44226">
        <ele>228.059501</ele>
        <time>2022-07-25T06:58:49.025Z</time>
      </trkpt>
      <trkpt lat="43.33667" lon="0.44204">
        <ele>227.86836</ele>
        <time>2022-07-25T06:58:52.169Z</time>
      </trkpt>
      <trkpt lat="43.33676" lon="0.44166">
        <ele>227.585054</ele>
        <time>2022-07-25T06:58:57.203Z</time>
      </trkpt>
      <trkpt lat="43.3368" lon="0.4413">
        <ele>227.324291</ele>
        <time>2022-07-25T06:59:02.449Z</time>
      </trkpt>
      <trkpt lat="43.33693" lon="0.44007">
        <ele>227.010247</ele>
        <time>2022-07-25T06:59:21.524Z</time>
      </trkpt>
      <trkpt lat="43.33699" lon="0.43958">
        <ele>227.297206</ele>
        <time>2022-07-25T06:59:29.951Z</time>
      </trkpt>
      <trkpt lat="43.33709" lon="0.43915">
        <ele>227.558202</ele>
        <time>2022-07-25T06:59:37.959Z</time>
      </trkpt>
      <trkpt lat="43.33887" lon="0.43537">
        <ele>232.164988</ele>
        <time>2022-07-25T07:01:11.044Z</time>
      </trkpt>
      <trkpt lat="43.33981" lon="0.43412">
        <ele>235.245953</ele>
        <time>2022-07-25T07:01:57.003Z</time>
      </trkpt>
      <trkpt lat="43.33995" lon="0.43386">
        <ele>236.088334</ele>
        <time>2022-07-25T07:02:06.596Z</time>
      </trkpt>
      <trkpt lat="43.34045" lon="0.43238">
        <ele>240.224866</ele>
        <time>2022-07-25T07:02:55.783Z</time>
      </trkpt>
      <trkpt lat="43.34112" lon="0.43112">
        <ele>244.243917</ele>
        <time>2022-07-25T07:03:44.370Z</time>
      </trkpt>
      <trkpt lat="43.34179" lon="0.42931">
        <ele>248.799692</ele>
        <time>2022-07-25T07:04:40.599Z</time>
      </trkpt>
      <trkpt lat="43.34264" lon="0.42733">
        <ele>253.094379</ele>
        <time>2022-07-25T07:05:35.776Z</time>
      </trkpt>
      <trkpt lat="43.34339" lon="0.42483">
        <ele>258.787318</ele>
        <time>2022-07-25T07:06:48.429Z</time>
      </trkpt>
      <trkpt lat="43.3436" lon="0.42437">
        <ele>260.076001</ele>
        <time>2022-07-25T07:07:04.191Z</time>
      </trkpt>
      <trkpt lat="43.34415" lon="0.42345">
        <ele>263.102574</ele>
        <time>2022-07-25T07:07:38.779Z</time>
      </trkpt>
      <trkpt lat="43.34421" lon="0.42318">
        <ele>264.014237</ele>
        <time>2022-07-25T07:07:47.583Z</time>
      </trkpt>
      <trkpt lat="43.3443" lon="0.42185">
        <ele>268.337825</ele>
        <time>2022-07-25T07:08:32.723Z</time>
      </trkpt>
      <trkpt lat="43.3447" lon="0.41964">
        <ele>276.234663</ele>
        <time>2022-07-25T07:09:52.469Z</time>
      </trkpt>
      <trkpt lat="43.3448" lon="0.41845">
        <ele>280.46445</ele>
        <time>2022-07-25T07:10:35.107Z</time>
      </trkpt>
      <trkpt lat="43.34482" lon="0.41805">
        <ele>281.812397</ele>
        <time>2022-07-25T07:10:49.032Z</time>
      </trkpt>
      <trkpt lat="43.34498" lon="0.41435">
        <ele>293.096265</ele>
        <time>2022-07-25T07:12:52.809Z</time>
      </trkpt>
      <trkpt lat="43.34474" lon="0.41436">
        <ele>294.013339</ele>
        <time>2022-07-25T07:13:01.987Z</time>
      </trkpt>
      <trkpt lat="43.34327" lon="0.41404">
        <ele>295.226973</ele>
        <time>2022-07-25T07:13:40.569Z</time>
      </trkpt>
      <trkpt lat="43.34268" lon="0.41387">
        <ele>295.294045</ele>
        <time>2022-07-25T07:13:50.673Z</time>
      </trkpt>
      <trkpt lat="43.3425" lon="0.41382">
        <ele>295.115719</ele>
        <time>2022-07-25T07:13:53.550Z</time>
      </trkpt>
      <trkpt lat="43.3413" lon="0.4131">
        <ele>293.833284</ele>
        <time>2022-07-25T07:14:14.831Z</time>
      </trkpt>
      <trkpt lat="43.33906" lon="0.41172">
        <ele>295.536085</ele>
        <time>2022-07-25T07:15:14.450Z</time>
      </trkpt>
      <trkpt lat="43.33877" lon="0.41143">
        <ele>296.233247</ele>
        <time>2022-07-25T07:15:25.281Z</time>
      </trkpt>
      <trkpt lat="43.33773" lon="0.41023">
        <ele>299.48107</ele>
        <time>2022-07-25T07:16:14.804Z</time>
      </trkpt>
      <trkpt lat="43.3365" lon="0.40906">
        <ele>304.263881</ele>
        <time>2022-07-25T07:17:15.631Z</time>
      </trkpt>
      <trkpt lat="43.3361" lon="0.40847">
        <ele>305.472279</ele>
        <time>2022-07-25T07:17:37.427Z</time>
      </trkpt>
      <trkpt lat="43.33598" lon="0.40834">
        <ele>305.786761</ele>
        <time>2022-07-25T07:17:42.790Z</time>
      </trkpt>
      <trkpt lat="43.33529" lon="0.40793">
        <ele>307.352966</ele>
        <time>2022-07-25T07:18:05.123Z</time>
      </trkpt>
      <trkpt lat="43.33517" lon="0.40777">
        <ele>307.685042</ele>
        <time>2022-07-25T07:18:09.364Z</time>
      </trkpt>
      <trkpt lat="43.33514" lon="0.40693">
        <ele>306.97588</ele>
        <time>2022-07-25T07:18:22.243Z</time>
      </trkpt>
      <trkpt lat="43.33503" lon="0.40666">
        <ele>306.719304</ele>
        <time>2022-07-25T07:18:26.071Z</time>
      </trkpt>
      <trkpt lat="43.33475" lon="0.40631">
        <ele>306.271938</ele>
        <time>2022-07-25T07:18:32.163Z</time>
      </trkpt>
      <trkpt lat="43.33467" lon="0.40585">
        <ele>305.869363</ele>
        <time>2022-07-25T07:18:37.308Z</time>
      </trkpt>
      <trkpt lat="43.33474" lon="0.40532">
        <ele>305.159857</ele>
        <time>2022-07-25T07:18:42.866Z</time>
      </trkpt>
      <trkpt lat="43.33508" lon="0.40396">
        <ele>302.202027</ele>
        <time>2022-07-25T07:18:58.016Z</time>
      </trkpt>
      <trkpt lat="43.33525" lon="0.40359">
        <ele>301.302552</ele>
        <time>2022-07-25T07:19:02.709Z</time>
      </trkpt>
      <trkpt lat="43.33535" lon="0.40356">
        <ele>301.005433</ele>
        <time>2022-07-25T07:19:04.190Z</time>
      </trkpt>
      <trkpt lat="43.33554" lon="0.40367">
        <ele>300.349406</ele>
        <time>2022-07-25T07:19:07.215Z</time>
      </trkpt>
      <trkpt lat="43.33557" lon="0.40394">
        <ele>299.361582</ele>
        <time>2022-07-25T07:19:10.052Z</time>
      </trkpt>
      <trkpt lat="43.33541" lon="0.4043">
        <ele>297.841979</ele>
        <time>2022-07-25T07:19:14.507Z</time>
      </trkpt>
      <trkpt lat="43.33539" lon="0.40445">
        <ele>297.285819</ele>
        <time>2022-07-25T07:19:16.193Z</time>
      </trkpt>
      <trkpt lat="43.33541" lon="0.40468">
        <ele>296.449283</ele>
        <time>2022-07-25T07:19:18.498Z</time>
      </trkpt>
      <trkpt lat="43.33549" lon="0.40488">
        <ele>295.638438</ele>
        <time>2022-07-25T07:19:20.739Z</time>
      </trkpt>
      <trkpt lat="43.33559" lon="0.40495">
        <ele>295.085025</ele>
        <time>2022-07-25T07:19:22.251Z</time>
      </trkpt>
      <trkpt lat="43.33578" lon="0.40492">
        <ele>294.091039</ele>
        <time>2022-07-25T07:19:24.823Z</time>
      </trkpt>
      <trkpt lat="43.33638" lon="0.40438">
        <ele>289.090974</ele>
        <time>2022-07-25T07:19:33.748Z</time>
      </trkpt>
      <trkpt lat="43.33647" lon="0.40423">
        <ele>287.431153</ele>
        <time>2022-07-25T07:19:35.449Z</time>
      </trkpt>
      <trkpt lat="43.33667" lon="0.40355">
        <ele>280.983664</ele>
        <time>2022-07-25T07:19:41.862Z</time>
      </trkpt>
      <trkpt lat="43.33697" lon="0.40166">
        <ele>264.213859</ele>
        <time>2022-07-25T07:19:58.209Z</time>
      </trkpt>
      <trkpt lat="43.33755" lon="0.39965">
        <ele>247.089726</ele>
        <time>2022-07-25T07:20:16.915Z</time>
      </trkpt>
      <trkpt lat="43.33761" lon="0.39934">
        <ele>245.89591</ele>
        <time>2022-07-25T07:20:19.849Z</time>
      </trkpt>
      <trkpt lat="43.33754" lon="0.39389">
        <ele>232.620068</ele>
        <time>2022-07-25T07:21:17.859Z</time>
      </trkpt>
      <trkpt lat="43.33735" lon="0.3921">
        <ele>230.292346</ele>
        <time>2022-07-25T07:21:38.093Z</time>
      </trkpt>
      <trkpt lat="43.33639" lon="0.39141">
        <ele>229.720836</ele>
        <time>2022-07-25T07:21:57.778Z</time>
      </trkpt>
      <trkpt lat="43.33424" lon="0.38971">
        <ele>232.08273</ele>
        <time>2022-07-25T07:23:08.785Z</time>
      </trkpt>
      <trkpt lat="43.33358" lon="0.38911">
        <ele>232.614399</ele>
        <time>2022-07-25T07:23:28.319Z</time>
      </trkpt>
      <trkpt lat="43.33347" lon="0.38893">
        <ele>232.727256</ele>
        <time>2022-07-25T07:23:32.185Z</time>
      </trkpt>
      <trkpt lat="43.33327" lon="0.3884">
        <ele>233.017946</ele>
        <time>2022-07-25T07:23:41.723Z</time>
      </trkpt>
      <trkpt lat="43.33313" lon="0.38798">
        <ele>233.055894</ele>
        <time>2022-07-25T07:23:48.553Z</time>
      </trkpt>
      <trkpt lat="43.33296" lon="0.38746">
        <ele>233.066541</ele>
        <time>2022-07-25T07:23:56.867Z</time>
      </trkpt>
      <trkpt lat="43.33283" lon="0.38706">
        <ele>233.074758</ele>
        <time>2022-07-25T07:24:03.288Z</time>
      </trkpt>
      <trkpt lat="43.33252" lon="0.38649">
        <ele>233.088328</ele>
        <time>2022-07-25T07:24:14.029Z</time>
      </trkpt>
      <trkpt lat="43.33135" lon="0.38501">
        <ele>233.454312</ele>
        <time>2022-07-25T07:24:48.942Z</time>
      </trkpt>
      <trkpt lat="43.33045" lon="0.38364">
        <ele>233.965687</ele>
        <time>2022-07-25T07:25:19.770Z</time>
      </trkpt>
      <trkpt lat="43.3299" lon="0.38321">
        <ele>234.246353</ele>
        <time>2022-07-25T07:25:34.896Z</time>
      </trkpt>
      <trkpt lat="43.32876" lon="0.38255">
        <ele>234.825247</ele>
        <time>2022-07-25T07:26:04.225Z</time>
      </trkpt>
      <trkpt lat="43.32734" lon="0.38173">
        <ele>235.55241</ele>
        <time>2022-07-25T07:26:39.810Z</time>
      </trkpt>
      <trkpt lat="43.3262" lon="0.38017">
        <ele>236.43899</ele>
        <time>2022-07-25T07:27:17.742Z</time>
      </trkpt>
      <trkpt lat="43.32542" lon="0.37905">
        <ele>237.281454</ele>
        <time>2022-07-25T07:27:46.092Z</time>
      </trkpt>
      <trkpt lat="43.32511" lon="0.37869">
        <ele>237.615211</ele>
        <time>2022-07-25T07:27:56.833Z</time>
      </trkpt>
      <trkpt lat="43.32472" lon="0.37842">
        <ele>238.003643</ele>
        <time>2022-07-25T07:28:08.488Z</time>
      </trkpt>
      <trkpt lat="43.32378" lon="0.37791">
        <ele>238.888941</ele>
        <time>2022-07-25T07:28:34.198Z</time>
      </trkpt>
      <trkpt lat="43.32271" lon="0.37734">
        <ele>239.588794</ele>
        <time>2022-07-25T07:29:02.687Z</time>
      </trkpt>
      <trkpt lat="43.32232" lon="0.37712">
        <ele>239.839739</ele>
        <time>2022-07-25T07:29:13.342Z</time>
      </trkpt>
      <trkpt lat="43.32111" lon="0.37643">
        <ele>240.016338</ele>
        <time>2022-07-25T07:29:40.573Z</time>
      </trkpt>
      <trkpt lat="43.32129" lon="0.37577">
        <ele>240.004147</ele>
        <time>2022-07-25T07:29:50.739Z</time>
      </trkpt>
      <trkpt lat="43.32146" lon="0.37512">
        <ele>240.078577</ele>
        <time>2022-07-25T07:30:00.850Z</time>
      </trkpt>
      <trkpt lat="43.32155" lon="0.37478">
        <ele>240.1981</ele>
        <time>2022-07-25T07:30:05.981Z</time>
      </trkpt>
      <trkpt lat="43.32174" lon="0.37413">
        <ele>240.431958</ele>
        <time>2022-07-25T07:30:17.013Z</time>
      </trkpt>
      <trkpt lat="43.32197" lon="0.37327">
        <ele>240.737686</ele>
        <time>2022-07-25T07:30:33.357Z</time>
      </trkpt>
      <trkpt lat="43.32196" lon="0.37293">
        <ele>240.946701</ele>
        <time>2022-07-25T07:30:40.175Z</time>
      </trkpt>
      <trkpt lat="43.3219" lon="0.37264">
        <ele>241.345356</ele>
        <time>2022-07-25T07:30:46.718Z</time>
      </trkpt>
      <trkpt lat="43.32181" lon="0.37248">
        <ele>241.61349</ele>
        <time>2022-07-25T07:30:51.174Z</time>
      </trkpt>
      <trkpt lat="43.3222" lon="0.37186">
        <ele>242.705387</ele>
        <time>2022-07-25T07:31:10.622Z</time>
      </trkpt>
      <trkpt lat="43.32197" lon="0.37158">
        <ele>243.269704</ele>
        <time>2022-07-25T07:31:20.846Z</time>
      </trkpt>
      <trkpt lat="43.32162" lon="0.37116">
        <ele>244.096559</ele>
        <time>2022-07-25T07:31:35.739Z</time>
      </trkpt>
      <trkpt lat="43.32151" lon="0.37103">
        <ele>244.312139</ele>
        <time>2022-07-25T07:31:40.429Z</time>
      </trkpt>
      <trkpt lat="43.32125" lon="0.37071">
        <ele>244.817843</ele>
        <time>2022-07-25T07:31:50.859Z</time>
      </trkpt>
      <trkpt lat="43.32121" lon="0.37067">
        <ele>244.885294</ele>
        <time>2022-07-25T07:31:52.189Z</time>
      </trkpt>
      <trkpt lat="43.3211" lon="0.37053">
        <ele>245.110545</ele>
        <time>2022-07-25T07:31:56.622Z</time>
      </trkpt>
      <trkpt lat="43.321" lon="0.37041">
        <ele>245.305706</ele>
        <time>2022-07-25T07:32:00.556Z</time>
      </trkpt>
      <trkpt lat="43.3207" lon="0.37003">
        <ele>245.89693</ele>
        <time>2022-07-25T07:32:12.096Z</time>
      </trkpt>
      <trkpt lat="43.32046" lon="0.36974">
        <ele>246.367933</ele>
        <time>2022-07-25T07:32:21.176Z</time>
      </trkpt>
      <trkpt lat="43.32043" lon="0.3697">
        <ele>246.42096</ele>
        <time>2022-07-25T07:32:22.405Z</time>
      </trkpt>
      <trkpt lat="43.31989" lon="0.36903">
        <ele>247.185102</ele>
        <time>2022-07-25T07:32:46.887Z</time>
      </trkpt>
      <trkpt lat="43.31957" lon="0.36864">
        <ele>247.575258</ele>
        <time>2022-07-25T07:33:00.607Z</time>
      </trkpt>
      <trkpt lat="43.31932" lon="0.36829">
        <ele>247.90188</ele>
        <time>2022-07-25T07:33:12.310Z</time>
      </trkpt>
      <trkpt lat="43.31887" lon="0.36778">
        <ele>248.484148</ele>
        <time>2022-07-25T07:33:31.875Z</time>
      </trkpt>
      <trkpt lat="43.3188" lon="0.36764">
        <ele>248.651226</ele>
        <time>2022-07-25T07:33:36.064Z</time>
      </trkpt>
      <trkpt lat="43.31881" lon="0.36753">
        <ele>248.758593</ele>
        <time>2022-07-25T07:33:39.018Z</time>
      </trkpt>
      <trkpt lat="43.31867" lon="0.36759">
        <ele>248.962218</ele>
        <time>2022-07-25T07:33:42.750Z</time>
      </trkpt>
      <trkpt lat="43.31881" lon="0.36753">
        <ele>249.165843</ele>
        <time>2022-07-25T07:33:46.888Z</time>
      </trkpt>
      <trkpt lat="43.31907" lon="0.36468">
        <ele>252.579913</ele>
        <time>2022-07-25T07:34:48.410Z</time>
      </trkpt>
      <trkpt lat="43.31942" lon="0.36101">
        <ele>258.544251</ele>
        <time>2022-07-25T07:36:20.156Z</time>
      </trkpt>
      <trkpt lat="43.31988" lon="0.35824">
        <ele>263.171902</ele>
        <time>2022-07-25T07:37:28.012Z</time>
      </trkpt>
      <trkpt lat="43.3208" lon="0.35256">
        <ele>274.273545</ele>
        <time>2022-07-25T07:39:58.904Z</time>
      </trkpt>
      <trkpt lat="43.32109" lon="0.35037">
        <ele>279.237971</ele>
        <time>2022-07-25T07:40:56.305Z</time>
      </trkpt>
      <trkpt lat="43.32156" lon="0.3467">
        <ele>290.138599</ele>
        <time>2022-07-25T07:42:57.362Z</time>
      </trkpt>
      <trkpt lat="43.32185" lon="0.34497">
        <ele>295.676882</ele>
        <time>2022-07-25T07:43:56.026Z</time>
      </trkpt>
      <trkpt lat="43.32225" lon="0.34273">
        <ele>302.631571</ele>
        <time>2022-07-25T07:45:09.643Z</time>
      </trkpt>
      <trkpt lat="43.32227" lon="0.34262">
        <ele>302.993258</ele>
        <time>2022-07-25T07:45:13.504Z</time>
      </trkpt>
      <trkpt lat="43.32255" lon="0.34097">
        <ele>307.885054</ele>
        <time>2022-07-25T07:46:05.980Z</time>
      </trkpt>
      <trkpt lat="43.32282" lon="0.33919">
        <ele>313.024133</ele>
        <time>2022-07-25T07:47:02.507Z</time>
      </trkpt>
      <trkpt lat="43.32289" lon="0.33819">
        <ele>315.799841</ele>
        <time>2022-07-25T07:47:32.436Z</time>
      </trkpt>
      <trkpt lat="43.32211" lon="0.33742">
        <ele>319.444251</ele>
        <time>2022-07-25T07:48:12.867Z</time>
      </trkpt>
      <trkpt lat="43.32177" lon="0.33697">
        <ele>321.167655</ele>
        <time>2022-07-25T07:48:33.430Z</time>
      </trkpt>
      <trkpt lat="43.32163" lon="0.33665">
        <ele>322.175012</ele>
        <time>2022-07-25T07:48:44.970Z</time>
      </trkpt>
      <trkpt lat="43.32164" lon="0.33612">
        <ele>323.569465</ele>
        <time>2022-07-25T07:49:00.654Z</time>
      </trkpt>
      <trkpt lat="43.32163" lon="0.33558">
        <ele>325.009748</ele>
        <time>2022-07-25T07:49:16.757Z</time>
      </trkpt>
      <trkpt lat="43.32105" lon="0.33416">
        <ele>328.517151</ele>
        <time>2022-07-25T07:50:03.027Z</time>
      </trkpt>
      <trkpt lat="43.32094" lon="0.33375">
        <ele>329.363259</ele>
        <time>2022-07-25T07:50:14.316Z</time>
      </trkpt>
      <trkpt lat="43.3208" lon="0.33297">
        <ele>330.914394</ele>
        <time>2022-07-25T07:50:32.765Z</time>
      </trkpt>
      <trkpt lat="43.3208" lon="0.33257">
        <ele>331.472546</ele>
        <time>2022-07-25T07:50:41.941Z</time>
      </trkpt>
      <trkpt lat="43.32096" lon="0.33046">
        <ele>334.097235</ele>
        <time>2022-07-25T07:51:27.766Z</time>
      </trkpt>
      <trkpt lat="43.32085" lon="0.32873">
        <ele>337.089151</ele>
        <time>2022-07-25T07:52:07.892Z</time>
      </trkpt>
      <trkpt lat="43.32107" lon="0.32592">
        <ele>343.347638</ele>
        <time>2022-07-25T07:53:28.990Z</time>
      </trkpt>
      <trkpt lat="43.32105" lon="0.32583">
        <ele>343.575565</ele>
        <time>2022-07-25T07:53:33.221Z</time>
      </trkpt>
      <trkpt lat="43.32075" lon="0.32547">
        <ele>344.463417</ele>
        <time>2022-07-25T07:53:48.947Z</time>
      </trkpt>
      <trkpt lat="43.32047" lon="0.32534">
        <ele>344.662816</ele>
        <time>2022-07-25T07:53:59.041Z</time>
      </trkpt>
      <trkpt lat="43.31948" lon="0.3259">
        <ele>345.392033</ele>
        <time>2022-07-25T07:54:27.054Z</time>
      </trkpt>
      <trkpt lat="43.31934" lon="0.32589">
        <ele>345.491227</ele>
        <time>2022-07-25T07:54:29.569Z</time>
      </trkpt>
      <trkpt lat="43.3193" lon="0.32579">
        <ele>345.549672</ele>
        <time>2022-07-25T07:54:30.804Z</time>
      </trkpt>
      <trkpt lat="43.31925" lon="0.32417">
        <ele>340.027048</ele>
        <time>2022-07-25T07:54:46.697Z</time>
      </trkpt>
      <trkpt lat="43.31927" lon="0.32376">
        <ele>338.538163</ele>
        <time>2022-07-25T07:54:50.577Z</time>
      </trkpt>
      <trkpt lat="43.31937" lon="0.32321">
        <ele>336.376925</ele>
        <time>2022-07-25T07:54:55.730Z</time>
      </trkpt>
      <trkpt lat="43.31932" lon="0.32307">
        <ele>335.56798</ele>
        <time>2022-07-25T07:54:57.015Z</time>
      </trkpt>
      <trkpt lat="43.31914" lon="0.32287">
        <ele>333.734321</ele>
        <time>2022-07-25T07:54:59.965Z</time>
      </trkpt>
      <trkpt lat="43.3189" lon="0.3219">
        <ele>327.964999</ele>
        <time>2022-07-25T07:55:09.137Z</time>
      </trkpt>
      <trkpt lat="43.31886" lon="0.32164">
        <ele>326.449545</ele>
        <time>2022-07-25T07:55:11.552Z</time>
      </trkpt>
      <trkpt lat="43.31881" lon="0.32069">
        <ele>320.997112</ele>
        <time>2022-07-25T07:55:20.176Z</time>
      </trkpt>
      <trkpt lat="43.31886" lon="0.31885">
        <ele>309.869867</ele>
        <time>2022-07-25T07:55:36.788Z</time>
      </trkpt>
      <trkpt lat="43.31902" lon="0.31812">
        <ele>304.695275</ele>
        <time>2022-07-25T07:55:43.456Z</time>
      </trkpt>
      <trkpt lat="43.3193" lon="0.31594">
        <ele>289.141383</ele>
        <time>2022-07-25T07:56:02.744Z</time>
      </trkpt>
      <trkpt lat="43.31932" lon="0.31592">
        <ele>289.02848</ele>
        <time>2022-07-25T07:56:03.026Z</time>
      </trkpt>
      <trkpt lat="43.31939" lon="0.31581">
        <ele>288.503744</ele>
        <time>2022-07-25T07:56:04.340Z</time>
      </trkpt>
      <trkpt lat="43.31943" lon="0.31557">
        <ele>287.629832</ele>
        <time>2022-07-25T07:56:06.524Z</time>
      </trkpt>
      <trkpt lat="43.31941" lon="0.31467">
        <ele>284.430703</ele>
        <time>2022-07-25T07:56:14.955Z</time>
      </trkpt>
      <trkpt lat="43.3193" lon="0.31446">
        <ele>283.501321</ele>
        <time>2022-07-25T07:56:17.595Z</time>
      </trkpt>
      <trkpt lat="43.31904" lon="0.31416">
        <ele>281.858207</ele>
        <time>2022-07-25T07:56:22.821Z</time>
      </trkpt>
      <trkpt lat="43.31865" lon="0.3126">
        <ele>282.470619</ele>
        <time>2022-07-25T07:56:54.363Z</time>
      </trkpt>
      <trkpt lat="43.3176" lon="0.30867">
        <ele>290.125099</ele>
        <time>2022-07-25T07:58:46.376Z</time>
      </trkpt>
      <trkpt lat="43.3174" lon="0.30791">
        <ele>291.828474</ele>
        <time>2022-07-25T07:59:08.690Z</time>
      </trkpt>
      <trkpt lat="43.31694" lon="0.30635">
        <ele>295.448019</ele>
        <time>2022-07-25T07:59:52.722Z</time>
      </trkpt>
      <trkpt lat="43.31671" lon="0.30559">
        <ele>297.276046</ele>
        <time>2022-07-25T08:00:15.057Z</time>
      </trkpt>
      <trkpt lat="43.3161" lon="0.30347">
        <ele>302.352428</ele>
        <time>2022-07-25T08:01:20.627Z</time>
      </trkpt>
      <trkpt lat="43.31561" lon="0.30156">
        <ele>306.216576</ele>
        <time>2022-07-25T08:02:14.033Z</time>
      </trkpt>
      <trkpt lat="43.31475" lon="0.30191">
        <ele>308.038832</ele>
        <time>2022-07-25T08:02:42.069Z</time>
      </trkpt>
      <trkpt lat="43.31442" lon="0.30196">
        <ele>308.68629</ele>
        <time>2022-07-25T08:02:51.294Z</time>
      </trkpt>
      <trkpt lat="43.31383" lon="0.30199">
        <ele>309.66088</ele>
        <time>2022-07-25T08:03:06.867Z</time>
      </trkpt>
      <trkpt lat="43.31223" lon="0.30207">
        <ele>313.134437</ele>
        <time>2022-07-25T08:03:56.160Z</time>
      </trkpt>
      <trkpt lat="43.31234" lon="0.29925">
        <ele>320.887145</ele>
        <time>2022-07-25T08:10:05.752Z</time>
      </trkpt>
      <trkpt lat="43.31238" lon="0.29824">
        <ele>323.951504</ele>
        <time>2022-07-25T08:12:18.308Z</time>
      </trkpt>
      <trkpt lat="43.31235" lon="0.2982">
        <ele>324.122643</ele>
        <time>2022-07-25T08:12:25.977Z</time>
      </trkpt>
      <trkpt lat="43.31141" lon="0.29823">
        <ele>326.885642</ele>
        <time>2022-07-25T08:15:11.156Z</time>
      </trkpt>
      <trkpt lat="43.31021" lon="0.29822">
        <ele>329.589378</ele>
        <time>2022-07-25T08:18:29.265Z</time>
      </trkpt>
      <trkpt lat="43.31007" lon="0.29827">
        <ele>329.760865</ele>
        <time>2022-07-25T08:18:51.293Z</time>
      </trkpt>
      <trkpt lat="43.30994" lon="0.29822">
        <ele>329.93664</ele>
        <time>2022-07-25T08:18:55.684Z</time>
      </trkpt>
      <trkpt lat="43.30848" lon="0.29815">
        <ele>331.735879</ele>
        <time>2022-07-25T08:19:35.348Z</time>
      </trkpt>
      <trkpt lat="43.30766" lon="0.29807">
        <ele>332.868069</ele>
        <time>2022-07-25T08:19:58.252Z</time>
      </trkpt>
      <trkpt lat="43.30707" lon="0.29788">
        <ele>333.69015</ele>
        <time>2022-07-25T08:20:15.026Z</time>
      </trkpt>
      <trkpt lat="43.30581" lon="0.29783">
        <ele>335.736492</ele>
        <time>2022-07-25T08:20:53.430Z</time>
      </trkpt>
      <trkpt lat="43.30575" lon="0.29783">
        <ele>335.837697</ele>
        <time>2022-07-25T08:20:55.132Z</time>
      </trkpt>
      <trkpt lat="43.30442" lon="0.29749">
        <ele>338.274795</ele>
        <time>2022-07-25T08:21:36.640Z</time>
      </trkpt>
      <trkpt lat="43.30328" lon="0.29663">
        <ele>340.748415</ele>
        <time>2022-07-25T08:22:18.174Z</time>
      </trkpt>
      <trkpt lat="43.30184" lon="0.29595">
        <ele>342.964788</ele>
        <time>2022-07-25T08:23:04.771Z</time>
      </trkpt>
      <trkpt lat="43.30132" lon="0.29576">
        <ele>343.251919</ele>
        <time>2022-07-25T08:23:18.092Z</time>
      </trkpt>
      <trkpt lat="43.3006" lon="0.29559">
        <ele>342.731403</ele>
        <time>2022-07-25T08:23:31.259Z</time>
      </trkpt>
      <trkpt lat="43.29943" lon="0.29619">
        <ele>341.74255</ele>
        <time>2022-07-25T08:24:00.123Z</time>
      </trkpt>
      <trkpt lat="43.29912" lon="0.2963">
        <ele>341.443001</ele>
        <time>2022-07-25T08:24:07.372Z</time>
      </trkpt>
      <trkpt lat="43.29774" lon="0.29642">
        <ele>340.700824</ele>
        <time>2022-07-25T08:24:32.349Z</time>
      </trkpt>
      <trkpt lat="43.29716" lon="0.2962">
        <ele>341.192233</ele>
        <time>2022-07-25T08:24:47.726Z</time>
      </trkpt>
      <trkpt lat="43.2962" lon="0.29565">
        <ele>342.051361</ele>
        <time>2022-07-25T08:25:17.811Z</time>
      </trkpt>
      <trkpt lat="43.29576" lon="0.29517">
        <ele>342.541386</ele>
        <time>2022-07-25T08:25:35.075Z</time>
      </trkpt>
      <trkpt lat="43.2942" lon="0.29429">
        <ele>342.60355</ele>
        <time>2022-07-25T08:26:13.611Z</time>
      </trkpt>
      <trkpt lat="43.29397" lon="0.29614">
        <ele>340.363212</ele>
        <time>2022-07-25T08:26:34.151Z</time>
      </trkpt>
      <trkpt lat="43.29346" lon="0.29691">
        <ele>338.161594</ele>
        <time>2022-07-25T08:26:44.889Z</time>
      </trkpt>
      <trkpt lat="43.29326" lon="0.29732">
        <ele>337.126487</ele>
        <time>2022-07-25T08:26:49.983Z</time>
      </trkpt>
      <trkpt lat="43.29309" lon="0.29798">
        <ele>335.658078</ele>
        <time>2022-07-25T08:26:57.335Z</time>
      </trkpt>
      <trkpt lat="43.29264" lon="0.29904">
        <ele>333.114117</ele>
        <time>2022-07-25T08:27:10.498Z</time>
      </trkpt>
      <trkpt lat="43.2923" lon="0.29954">
        <ele>331.695737</ele>
        <time>2022-07-25T08:27:17.667Z</time>
      </trkpt>
      <trkpt lat="43.29176" lon="0.30017">
        <ele>329.716123</ele>
        <time>2022-07-25T08:27:27.745Z</time>
      </trkpt>
      <trkpt lat="43.29105" lon="0.30081">
        <ele>327.357439</ele>
        <time>2022-07-25T08:27:39.981Z</time>
      </trkpt>
      <trkpt lat="43.29014" lon="0.30128">
        <ele>325.087603</ele>
        <time>2022-07-25T08:27:54.442Z</time>
      </trkpt>
      <trkpt lat="43.28972" lon="0.3013">
        <ele>324.478647</ele>
        <time>2022-07-25T08:28:00.846Z</time>
      </trkpt>
      <trkpt lat="43.28961" lon="0.30135">
        <ele>324.301565</ele>
        <time>2022-07-25T08:28:02.756Z</time>
      </trkpt>
      <trkpt lat="43.28915" lon="0.30228">
        <ele>323.111755</ele>
        <time>2022-07-25T08:28:16.551Z</time>
      </trkpt>
      <trkpt lat="43.28897" lon="0.30244">
        <ele>322.919759</ele>
        <time>2022-07-25T08:28:20.801Z</time>
      </trkpt>
      <trkpt lat="43.28889" lon="0.30251">
        <ele>322.905277</ele>
        <time>2022-07-25T08:28:22.550Z</time>
      </trkpt>
      <trkpt lat="43.28864" lon="0.30302">
        <ele>322.835453</ele>
        <time>2022-07-25T08:28:31.620Z</time>
      </trkpt>
      <trkpt lat="43.28822" lon="0.30357">
        <ele>322.744149</ele>
        <time>2022-07-25T08:28:43.852Z</time>
      </trkpt>
      <trkpt lat="43.28803" lon="0.30391">
        <ele>322.695783</ele>
        <time>2022-07-25T08:28:50.099Z</time>
      </trkpt>
      <trkpt lat="43.28745" lon="0.30497">
        <ele>322.311403</ele>
        <time>2022-07-25T08:29:09.675Z</time>
      </trkpt>
      <trkpt lat="43.28636" lon="0.30628">
        <ele>321.680354</ele>
        <time>2022-07-25T08:29:35.521Z</time>
      </trkpt>
      <trkpt lat="43.28547" lon="0.30664">
        <ele>321.430922</ele>
        <time>2022-07-25T08:29:52.162Z</time>
      </trkpt>
      <trkpt lat="43.28517" lon="0.30693">
        <ele>321.332878</ele>
        <time>2022-07-25T08:29:59.346Z</time>
      </trkpt>
      <trkpt lat="43.28502" lon="0.30697">
        <ele>321.291878</ele>
        <time>2022-07-25T08:30:02.538Z</time>
      </trkpt>
      <trkpt lat="43.28251" lon="0.30712">
        <ele>327.433689</ele>
        <time>2022-07-25T08:31:21.433Z</time>
      </trkpt>
      <trkpt lat="43.28248" lon="0.30741">
        <ele>328.394956</ele>
        <time>2022-07-25T08:31:33.420Z</time>
      </trkpt>
      <trkpt lat="43.28228" lon="0.30797">
        <ele>330.399229</ele>
        <time>2022-07-25T08:31:58.289Z</time>
      </trkpt>
      <trkpt lat="43.2822" lon="0.30812">
        <ele>330.996888</ele>
        <time>2022-07-25T08:32:05.955Z</time>
      </trkpt>
      <trkpt lat="43.28218" lon="0.30817">
        <ele>331.185042</ele>
        <time>2022-07-25T08:32:08.375Z</time>
      </trkpt>
      <trkpt lat="43.28201" lon="0.30861">
        <ele>332.899749</ele>
        <time>2022-07-25T08:32:28.151Z</time>
      </trkpt>
      <trkpt lat="43.282" lon="0.30885">
        <ele>333.826335</ele>
        <time>2022-07-25T08:32:37.132Z</time>
      </trkpt>
      <trkpt lat="43.28209" lon="0.3093">
        <ele>335.651361</ele>
        <time>2022-07-25T08:32:56.788Z</time>
      </trkpt>
      <trkpt lat="43.28205" lon="0.30949">
        <ele>336.414885</ele>
        <time>2022-07-25T08:33:05.513Z</time>
      </trkpt>
      <trkpt lat="43.28197" lon="0.30959">
        <ele>336.949142</ele>
        <time>2022-07-25T08:33:11.756Z</time>
      </trkpt>
      <trkpt lat="43.28179" lon="0.30964">
        <ele>337.940452</ele>
        <time>2022-07-25T08:33:22.558Z</time>
      </trkpt>
      <trkpt lat="43.28169" lon="0.30959">
        <ele>338.485871</ele>
        <time>2022-07-25T08:33:28.609Z</time>
      </trkpt>
      <trkpt lat="43.28146" lon="0.30934">
        <ele>340.076969</ele>
        <time>2022-07-25T08:33:44.711Z</time>
      </trkpt>
      <trkpt lat="43.28117" lon="0.30928">
        <ele>341.627069</ele>
        <time>2022-07-25T08:33:55.168Z</time>
      </trkpt>
      <trkpt lat="43.28104" lon="0.30936">
        <ele>341.853299</ele>
        <time>2022-07-25T08:33:58.699Z</time>
      </trkpt>
      <trkpt lat="43.28074" lon="0.31">
        <ele>342.075546</ele>
        <time>2022-07-25T08:34:13.742Z</time>
      </trkpt>
      <trkpt lat="43.28067" lon="0.31036">
        <ele>342.180578</ele>
        <time>2022-07-25T08:34:19.972Z</time>
      </trkpt>
      <trkpt lat="43.28074" lon="0.31083">
        <ele>342.32145</ele>
        <time>2022-07-25T08:34:27.682Z</time>
      </trkpt>
      <trkpt lat="43.28089" lon="0.31133">
        <ele>342.476184</ele>
        <time>2022-07-25T08:34:34.654Z</time>
      </trkpt>
      <trkpt lat="43.28116" lon="0.31097">
        <ele>341.896454</ele>
        <time>2022-07-25T08:35:30.286Z</time>
      </trkpt>
      <trkpt lat="43.28089" lon="0.31133">
        <ele>340.962119</ele>
        <time>2022-07-25T08:36:24.487Z</time>
      </trkpt>
      <trkpt lat="43.28108" lon="0.31174">
        <ele>340.091827</ele>
        <time>2022-07-25T08:36:29.533Z</time>
      </trkpt>
      <trkpt lat="43.28116" lon="0.31204">
        <ele>339.507896</ele>
        <time>2022-07-25T08:36:33.100Z</time>
      </trkpt>
      <trkpt lat="43.2811" lon="0.31225">
        <ele>339.101352</ele>
        <time>2022-07-25T08:36:35.340Z</time>
      </trkpt>
      <trkpt lat="43.28051" lon="0.31319">
        <ele>337.454175</ele>
        <time>2022-07-25T08:36:48.603Z</time>
      </trkpt>
      <trkpt lat="43.28045" lon="0.31339">
        <ele>337.248413</ele>
        <time>2022-07-25T08:36:50.806Z</time>
      </trkpt>
      <trkpt lat="43.28016" lon="0.31332">
        <ele>336.870081</ele>
        <time>2022-07-25T08:36:55.509Z</time>
      </trkpt>
      <trkpt lat="43.27974" lon="0.31315">
        <ele>336.302682</ele>
        <time>2022-07-25T08:37:03.315Z</time>
      </trkpt>
      <trkpt lat="43.27914" lon="0.31293">
        <ele>336.094737</ele>
        <time>2022-07-25T08:37:16.991Z</time>
      </trkpt>
      <trkpt lat="43.27883" lon="0.31288">
        <ele>336.612898</ele>
        <time>2022-07-25T08:37:25.361Z</time>
      </trkpt>
      <trkpt lat="43.27799" lon="0.31283">
        <ele>338.01423</ele>
        <time>2022-07-25T08:37:54.174Z</time>
      </trkpt>
      <trkpt lat="43.27783" lon="0.31283">
        <ele>338.277225</ele>
        <time>2022-07-25T08:37:58.573Z</time>
      </trkpt>
      <trkpt lat="43.27774" lon="0.31296">
        <ele>338.504209</ele>
        <time>2022-07-25T08:38:03.639Z</time>
      </trkpt>
      <trkpt lat="43.27759" lon="0.31322">
        <ele>338.758655</ele>
        <time>2022-07-25T08:38:10.831Z</time>
      </trkpt>
      <trkpt lat="43.27744" lon="0.31332">
        <ele>338.768348</ele>
        <time>2022-07-25T08:38:17.435Z</time>
      </trkpt>
      <trkpt lat="43.27708" lon="0.31338">
        <ele>338.788623</ele>
        <time>2022-07-25T08:38:28.154Z</time>
      </trkpt>
      <trkpt lat="43.27688" lon="0.3135">
        <ele>338.800841</ele>
        <time>2022-07-25T08:38:32.829Z</time>
      </trkpt>
      <trkpt lat="43.27684" lon="0.31365">
        <ele>338.807189</ele>
        <time>2022-07-25T08:38:35.682Z</time>
      </trkpt>
      <trkpt lat="43.27677" lon="0.31464">
        <ele>338.847956</ele>
        <time>2022-07-25T08:38:48.706Z</time>
      </trkpt>
      <trkpt lat="43.27669" lon="0.3149">
        <ele>338.552268</ele>
        <time>2022-07-25T08:38:51.876Z</time>
      </trkpt>
      <trkpt lat="43.27669" lon="0.31567">
        <ele>336.579618</ele>
        <time>2022-07-25T08:38:59.511Z</time>
      </trkpt>
      <trkpt lat="43.27653" lon="0.31745">
        <ele>332.203541</ele>
        <time>2022-07-25T08:39:17.312Z</time>
      </trkpt>
      <trkpt lat="43.27647" lon="0.31759">
        <ele>331.959759</ele>
        <time>2022-07-25T08:39:18.894Z</time>
      </trkpt>
      <trkpt lat="43.27611" lon="0.3176">
        <ele>331.223903</ele>
        <time>2022-07-25T08:39:24.227Z</time>
      </trkpt>
      <trkpt lat="43.27555" lon="0.3182">
        <ele>329.792441</ele>
        <time>2022-07-25T08:39:35.381Z</time>
      </trkpt>
      <trkpt lat="43.27538" lon="0.31827">
        <ele>329.444009</ele>
        <time>2022-07-25T08:39:38.630Z</time>
      </trkpt>
      <trkpt lat="43.27414" lon="0.31831">
        <ele>328.272069</ele>
        <time>2022-07-25T08:40:02.530Z</time>
      </trkpt>
      <trkpt lat="43.2741" lon="0.31838">
        <ele>328.233881</ele>
        <time>2022-07-25T08:40:03.548Z</time>
      </trkpt>
      <trkpt lat="43.27401" lon="0.31965">
        <ele>327.479793</ele>
        <time>2022-07-25T08:40:20.245Z</time>
      </trkpt>
      <trkpt lat="43.27399" lon="0.32007">
        <ele>326.944354</ele>
        <time>2022-07-25T08:40:25.247Z</time>
      </trkpt>
      <trkpt lat="43.27392" lon="0.32097">
        <ele>325.798256</ele>
        <time>2022-07-25T08:40:35.516Z</time>
      </trkpt>
      <trkpt lat="43.27368" lon="0.32135">
        <ele>325.151198</ele>
        <time>2022-07-25T08:40:41.213Z</time>
      </trkpt>
      <trkpt lat="43.27271" lon="0.32229">
        <ele>322.426576</ele>
        <time>2022-07-25T08:40:58.867Z</time>
      </trkpt>
      <trkpt lat="43.27251" lon="0.32268">
        <ele>321.565847</ele>
        <time>2022-07-25T08:41:03.904Z</time>
      </trkpt>
      <trkpt lat="43.27206" lon="0.32447">
        <ele>318.883129</ele>
        <time>2022-07-25T08:41:24.423Z</time>
      </trkpt>
      <trkpt lat="43.27154" lon="0.326">
        <ele>318.035032</ele>
        <time>2022-07-25T08:41:44.119Z</time>
      </trkpt>
      <trkpt lat="43.27068" lon="0.32794">
        <ele>323.544532</ele>
        <time>2022-07-25T08:42:53.664Z</time>
      </trkpt>
      <trkpt lat="43.27062" lon="0.32807">
        <ele>324.36881</ele>
        <time>2022-07-25T08:42:59.519Z</time>
      </trkpt>
      <trkpt lat="43.27027" lon="0.32912">
        <ele>330.74829</ele>
        <time>2022-07-25T08:43:53.047Z</time>
      </trkpt>
      <trkpt lat="43.27016" lon="0.32925">
        <ele>331.852457</ele>
        <time>2022-07-25T08:44:04.593Z</time>
      </trkpt>
      <trkpt lat="43.26956" lon="0.3293">
        <ele>336.425642</ele>
        <time>2022-07-25T08:44:48.031Z</time>
      </trkpt>
      <trkpt lat="43.26937" lon="0.32936">
        <ele>337.585342</ele>
        <time>2022-07-25T08:45:02.137Z</time>
      </trkpt>
      <trkpt lat="43.269" lon="0.32955">
        <ele>339.810064</ele>
        <time>2022-07-25T08:45:25.879Z</time>
      </trkpt>
      <trkpt lat="43.26888" lon="0.32969">
        <ele>340.706452</ele>
        <time>2022-07-25T08:45:36.829Z</time>
      </trkpt>
      <trkpt lat="43.26889" lon="0.32978">
        <ele>341.077075</ele>
        <time>2022-07-25T08:45:41.357Z</time>
      </trkpt>
      <trkpt lat="43.26934" lon="0.33046">
        <ele>344.895357</ele>
        <time>2022-07-25T08:46:11.621Z</time>
      </trkpt>
      <trkpt lat="43.26983" lon="0.33088">
        <ele>346.462097</ele>
        <time>2022-07-25T08:46:31.926Z</time>
      </trkpt>
      <trkpt lat="43.27" lon="0.33111">
        <ele>346.218543</ele>
        <time>2022-07-25T08:46:42.136Z</time>
      </trkpt>
      <trkpt lat="43.26998" lon="0.33213">
        <ele>345.482172</ele>
        <time>2022-07-25T08:46:55.972Z</time>
      </trkpt>
      <trkpt lat="43.27" lon="0.33223">
        <ele>345.40719</ele>
        <time>2022-07-25T08:46:57.007Z</time>
      </trkpt>
      <trkpt lat="43.27004" lon="0.33224">
        <ele>345.366458</ele>
        <time>2022-07-25T08:46:57.703Z</time>
      </trkpt>
      <trkpt lat="43.27" lon="0.33223">
        <ele>345.325726</ele>
        <time>2022-07-25T08:47:00.621Z</time>
      </trkpt>
      <trkpt lat="43.27012" lon="0.33514">
        <ele>334.17336</ele>
        <time>2022-07-25T08:47:27.792Z</time>
      </trkpt>
      <trkpt lat="43.2701" lon="0.33669">
        <ele>325.699462</ele>
        <time>2022-07-25T08:47:41.696Z</time>
      </trkpt>
      <trkpt lat="43.27076" lon="0.33756">
        <ele>319.186115</ele>
        <time>2022-07-25T08:47:53.156Z</time>
      </trkpt>
      <trkpt lat="43.27084" lon="0.33788">
        <ele>318.010469</ele>
        <time>2022-07-25T08:47:56.257Z</time>
      </trkpt>
      <trkpt lat="43.27092" lon="0.33855">
        <ele>315.628154</ele>
        <time>2022-07-25T08:48:02.779Z</time>
      </trkpt>
      <trkpt lat="43.27097" lon="0.33896">
        <ele>314.146043</ele>
        <time>2022-07-25T08:48:06.938Z</time>
      </trkpt>
      <trkpt lat="43.2714" lon="0.34028">
        <ele>310.444177</ele>
        <time>2022-07-25T08:48:21.939Z</time>
      </trkpt>
      <trkpt lat="43.27152" lon="0.34347">
        <ele>305.493446</ele>
        <time>2022-07-25T08:48:59.464Z</time>
      </trkpt>
      <trkpt lat="43.27147" lon="0.34469">
        <ele>303.20803</ele>
        <time>2022-07-25T08:49:12.144Z</time>
      </trkpt>
      <trkpt lat="43.27153" lon="0.34492">
        <ele>302.436932</ele>
        <time>2022-07-25T08:49:14.483Z</time>
      </trkpt>
      <trkpt lat="43.27218" lon="0.34624">
        <ele>297.332827</ele>
        <time>2022-07-25T08:49:29.935Z</time>
      </trkpt>
      <trkpt lat="43.27229" lon="0.34659">
        <ele>296.120881</ele>
        <time>2022-07-25T08:49:33.559Z</time>
      </trkpt>
      <trkpt lat="43.27229" lon="0.34677">
        <ele>295.576115</ele>
        <time>2022-07-25T08:49:35.296Z</time>
      </trkpt>
      <trkpt lat="43.27199" lon="0.34947">
        <ele>288.597163</ele>
        <time>2022-07-25T08:50:02.993Z</time>
      </trkpt>
      <trkpt lat="43.27194" lon="0.35059">
        <ele>287.055084</ele>
        <time>2022-07-25T08:50:15.401Z</time>
      </trkpt>
      <trkpt lat="43.27175" lon="0.35219">
        <ele>285.501561</ele>
        <time>2022-07-25T08:50:35.479Z</time>
      </trkpt>
      <trkpt lat="43.27162" lon="0.35294">
        <ele>285.356425</ele>
        <time>2022-07-25T08:50:47.958Z</time>
      </trkpt>
      <trkpt lat="43.27134" lon="0.35394">
        <ele>285.156444</ele>
        <time>2022-07-25T08:51:04.128Z</time>
      </trkpt>
      <trkpt lat="43.27078" lon="0.35354">
        <ele>284.870552</ele>
        <time>2022-07-25T08:51:16.545Z</time>
      </trkpt>
      <trkpt lat="43.27134" lon="0.35394">
        <ele>284.57751</ele>
        <time>2022-07-25T08:51:27.642Z</time>
      </trkpt>
      <trkpt lat="43.27007" lon="0.35667">
        <ele>284.768727</ele>
        <time>2022-07-25T08:52:10.087Z</time>
      </trkpt>
      <trkpt lat="43.26999" lon="0.35685">
        <ele>285.877721</ele>
        <time>2022-07-25T08:52:17.118Z</time>
      </trkpt>
      <trkpt lat="43.26986" lon="0.35714">
        <ele>288.011674</ele>
        <time>2022-07-25T08:52:30.748Z</time>
      </trkpt>
      <trkpt lat="43.26978" lon="0.35768">
        <ele>291.463209</ele>
        <time>2022-07-25T08:52:58.716Z</time>
      </trkpt>
      <trkpt lat="43.26959" lon="0.35818">
        <ele>294.996165</ele>
        <time>2022-07-25T08:53:31.166Z</time>
      </trkpt>
      <trkpt lat="43.26953" lon="0.35842">
        <ele>296.565414</ele>
        <time>2022-07-25T08:53:46.010Z</time>
      </trkpt>
      <trkpt lat="43.26956" lon="0.35858">
        <ele>297.62645</ele>
        <time>2022-07-25T08:53:56.626Z</time>
      </trkpt>
      <trkpt lat="43.2697" lon="0.35881">
        <ele>299.502474</ele>
        <time>2022-07-25T08:54:14.965Z</time>
      </trkpt>
      <trkpt lat="43.26997" lon="0.35958">
        <ele>306.285342</ele>
        <time>2022-07-25T08:55:11.501Z</time>
      </trkpt>
      <trkpt lat="43.27002" lon="0.36007">
        <ele>310.394773</ele>
        <time>2022-07-25T08:55:44.745Z</time>
      </trkpt>
      <trkpt lat="43.26975" lon="0.36101">
        <ele>318.683939</ele>
        <time>2022-07-25T08:56:48.139Z</time>
      </trkpt>
      <trkpt lat="43.26961" lon="0.36289">
        <ele>329.740841</ele>
        <time>2022-07-25T08:58:17.793Z</time>
      </trkpt>
      <trkpt lat="43.26931" lon="0.36465">
        <ele>337.598383</ele>
        <time>2022-07-25T08:59:29.490Z</time>
      </trkpt>
      <trkpt lat="43.26893" lon="0.36517">
        <ele>340.104028</ele>
        <time>2022-07-25T08:59:51.192Z</time>
      </trkpt>
      <trkpt lat="43.2682" lon="0.36551">
        <ele>343.989215</ele>
        <time>2022-07-25T09:00:22.658Z</time>
      </trkpt>
      <trkpt lat="43.2678" lon="0.3659">
        <ele>346.909087</ele>
        <time>2022-07-25T09:00:45.457Z</time>
      </trkpt>
      <trkpt lat="43.26758" lon="0.36639">
        <ele>349.43251</ele>
        <time>2022-07-25T09:01:07.115Z</time>
      </trkpt>
      <trkpt lat="43.26754" lon="0.36835">
        <ele>360.874782</ele>
        <time>2022-07-25T09:02:42.547Z</time>
      </trkpt>
      <trkpt lat="43.26747" lon="0.36868">
        <ele>363.317858</ele>
        <time>2022-07-25T09:03:02.257Z</time>
      </trkpt>
      <trkpt lat="43.26729" lon="0.36918">
        <ele>367.295795</ele>
        <time>2022-07-25T09:03:34.996Z</time>
      </trkpt>
      <trkpt lat="43.26715" lon="0.36999">
        <ele>373.002165</ele>
        <time>2022-07-25T09:04:27.698Z</time>
      </trkpt>
      <trkpt lat="43.26705" lon="0.37031">
        <ele>375.173288</ele>
        <time>2022-07-25T09:04:49.439Z</time>
      </trkpt>
      <trkpt lat="43.26674" lon="0.37064">
        <ele>378.55752</ele>
        <time>2022-07-25T09:05:20.769Z</time>
      </trkpt>
      <trkpt lat="43.26648" lon="0.37121">
        <ele>382.762319</ele>
        <time>2022-07-25T09:05:55.507Z</time>
      </trkpt>
      <trkpt lat="43.26618" lon="0.37173">
        <ele>386.379305</ele>
        <time>2022-07-25T09:06:20.971Z</time>
      </trkpt>
      <trkpt lat="43.26604" lon="0.37208">
        <ele>385.728141</ele>
        <time>2022-07-25T09:06:30.279Z</time>
      </trkpt>
      <trkpt lat="43.26605" lon="0.37249">
        <ele>385.055776</ele>
        <time>2022-07-25T09:06:37.333Z</time>
      </trkpt>
      <trkpt lat="43.26621" lon="0.37333">
        <ele>383.648493</ele>
        <time>2022-07-25T09:06:46.417Z</time>
      </trkpt>
      <trkpt lat="43.26614" lon="0.37376">
        <ele>382.923061</ele>
        <time>2022-07-25T09:06:50.511Z</time>
      </trkpt>
      <trkpt lat="43.26566" lon="0.37481">
        <ele>376.655107</ele>
        <time>2022-07-25T09:07:01.604Z</time>
      </trkpt>
      <trkpt lat="43.26553" lon="0.37502">
        <ele>375.000581</ele>
        <time>2022-07-25T09:07:04.003Z</time>
      </trkpt>
      <trkpt lat="43.26519" lon="0.37581">
        <ele>369.473879</ele>
        <time>2022-07-25T09:07:12.136Z</time>
      </trkpt>
      <trkpt lat="43.26476" lon="0.37704">
        <ele>362.763057</ele>
        <time>2022-07-25T09:07:24.647Z</time>
      </trkpt>
      <trkpt lat="43.26455" lon="0.37729">
        <ele>361.002578</ele>
        <time>2022-07-25T09:07:28.276Z</time>
      </trkpt>
      <trkpt lat="43.26464" lon="0.37779">
        <ele>358.656812</ele>
        <time>2022-07-25T09:07:33.151Z</time>
      </trkpt>
      <trkpt lat="43.26457" lon="0.37799">
        <ele>357.655423</ele>
        <time>2022-07-25T09:07:36.104Z</time>
      </trkpt>
      <trkpt lat="43.26443" lon="0.3782">
        <ele>356.381434</ele>
        <time>2022-07-25T09:07:39.878Z</time>
      </trkpt>
      <trkpt lat="43.26453" lon="0.37849">
        <ele>355.128378</ele>
        <time>2022-07-25T09:07:42.903Z</time>
      </trkpt>
      <trkpt lat="43.26486" lon="0.37949">
        <ele>350.916686</ele>
        <time>2022-07-25T09:07:53.395Z</time>
      </trkpt>
      <trkpt lat="43.26496" lon="0.3799">
        <ele>349.302046</ele>
        <time>2022-07-25T09:07:57.413Z</time>
      </trkpt>
      <trkpt lat="43.26531" lon="0.38632">
        <ele>327.554573</ele>
        <time>2022-07-25T09:08:59.946Z</time>
      </trkpt>
      <trkpt lat="43.26538" lon="0.38752">
        <ele>324.194446</ele>
        <time>2022-07-25T09:09:12.096Z</time>
      </trkpt>
      <trkpt lat="43.26548" lon="0.38938">
        <ele>320.626784</ele>
        <time>2022-07-25T09:09:32.068Z</time>
      </trkpt>
      <trkpt lat="43.26566" lon="0.3929">
        <ele>315.303917</ele>
        <time>2022-07-25T09:10:12.613Z</time>
      </trkpt>
      <trkpt lat="43.26585" lon="0.39761">
        <ele>303.150497</ele>
        <time>2022-07-25T09:10:59.952Z</time>
      </trkpt>
      <trkpt lat="43.26592" lon="0.40045">
        <ele>298.667856</ele>
        <time>2022-07-25T09:11:31.283Z</time>
      </trkpt>
      <trkpt lat="43.26611" lon="0.40649">
        <ele>295.489154</ele>
        <time>2022-07-25T09:12:52.270Z</time>
      </trkpt>
      <trkpt lat="43.26616" lon="0.40904">
        <ele>293.019998</ele>
        <time>2022-07-25T09:13:23.127Z</time>
      </trkpt>
      <trkpt lat="43.26615" lon="0.40927">
        <ele>292.733272</ele>
        <time>2022-07-25T09:13:25.653Z</time>
      </trkpt>
      <trkpt lat="43.26607" lon="0.41106">
        <ele>290.138355</ele>
        <time>2022-07-25T09:13:45.267Z</time>
      </trkpt>
      <trkpt lat="43.26597" lon="0.41293">
        <ele>287.195863</ele>
        <time>2022-07-25T09:14:05.811Z</time>
      </trkpt>
      <trkpt lat="43.26584" lon="0.41583">
        <ele>285.074285</ele>
        <time>2022-07-25T09:14:39.273Z</time>
      </trkpt>
      <trkpt lat="43.26583" lon="0.41599">
        <ele>285.210558</ele>
        <time>2022-07-25T09:14:41.269Z</time>
      </trkpt>
      <trkpt lat="43.26582" lon="0.41627">
        <ele>285.433319</ele>
        <time>2022-07-25T09:14:45.310Z</time>
      </trkpt>
      <trkpt lat="43.26582" lon="0.41637">
        <ele>285.522502</ele>
        <time>2022-07-25T09:14:46.927Z</time>
      </trkpt>
      <trkpt lat="43.26581" lon="0.41651">
        <ele>285.632338</ele>
        <time>2022-07-25T09:14:49.011Z</time>
      </trkpt>
      <trkpt lat="43.26572" lon="0.41804">
        <ele>289.155707</ele>
        <time>2022-07-25T09:15:36.494Z</time>
      </trkpt>
      <trkpt lat="43.26567" lon="0.4192">
        <ele>295.197556</ele>
        <time>2022-07-25T09:16:29.589Z</time>
      </trkpt>
      <trkpt lat="43.26571" lon="0.4195">
        <ele>296.797452</ele>
        <time>2022-07-25T09:16:45.298Z</time>
      </trkpt>
      <trkpt lat="43.26591" lon="0.41972">
        <ele>298.636678</ele>
        <time>2022-07-25T09:17:03.311Z</time>
      </trkpt>
      <trkpt lat="43.2667" lon="0.41978">
        <ele>305.14733</ele>
        <time>2022-07-25T09:18:02.198Z</time>
      </trkpt>
      <trkpt lat="43.26714" lon="0.41992">
        <ele>308.980262</ele>
        <time>2022-07-25T09:18:35.292Z</time>
      </trkpt>
      <trkpt lat="43.26742" lon="0.42008">
        <ele>311.47787</ele>
        <time>2022-07-25T09:18:54.804Z</time>
      </trkpt>
      <trkpt lat="43.2681" lon="0.42098">
        <ele>317.61023</ele>
        <time>2022-07-25T09:19:48.122Z</time>
      </trkpt>
      <trkpt lat="43.26856" lon="0.42147">
        <ele>320.696339</ele>
        <time>2022-07-25T09:20:18.093Z</time>
      </trkpt>
      <trkpt lat="43.26943" lon="0.42194">
        <ele>324.644081</ele>
        <time>2022-07-25T09:20:59.795Z</time>
      </trkpt>
      <trkpt lat="43.27022" lon="0.42268">
        <ele>326.56412</ele>
        <time>2022-07-25T09:21:29.802Z</time>
      </trkpt>
      <trkpt lat="43.27089" lon="0.42302">
        <ele>327.624466</ele>
        <time>2022-07-25T09:21:47.422Z</time>
      </trkpt>
      <trkpt lat="43.27095" lon="0.4231">
        <ele>327.614352</ele>
        <time>2022-07-25T09:21:49.173Z</time>
      </trkpt>
      <trkpt lat="43.27108" lon="0.42364">
        <ele>327.563407</ele>
        <time>2022-07-25T09:21:58.495Z</time>
      </trkpt>
      <trkpt lat="43.2719" lon="0.42694">
        <ele>326.367936</ele>
        <time>2022-07-25T09:22:45.242Z</time>
      </trkpt>
      <trkpt lat="43.27147" lon="0.42824">
        <ele>325.185099</ele>
        <time>2022-07-25T09:23:02.277Z</time>
      </trkpt>
      <trkpt lat="43.27115" lon="0.42922">
        <ele>324.125389</ele>
        <time>2022-07-25T09:23:14.882Z</time>
      </trkpt>
      <trkpt lat="43.27103" lon="0.42934">
        <ele>323.918932</ele>
        <time>2022-07-25T09:23:17.353Z</time>
      </trkpt>
      <trkpt lat="43.27158" lon="0.42968">
        <ele>323.23146</ele>
        <time>2022-07-25T09:23:27.396Z</time>
      </trkpt>
      <trkpt lat="43.27186" lon="0.42989">
        <ele>322.903009</ele>
        <time>2022-07-25T09:23:32.899Z</time>
      </trkpt>
      <trkpt lat="43.27195" lon="0.42994">
        <ele>322.807097</ele>
        <time>2022-07-25T09:23:34.547Z</time>
      </trkpt>
      <trkpt lat="43.27222" lon="0.43011">
        <ele>322.49978</ele>
        <time>2022-07-25T09:23:39.887Z</time>
      </trkpt>
      <trkpt lat="43.27301" lon="0.43053">
        <ele>321.522789</ele>
        <time>2022-07-25T09:23:54.542Z</time>
      </trkpt>
      <trkpt lat="43.27332" lon="0.43066">
        <ele>320.9764</ele>
        <time>2022-07-25T09:23:59.848Z</time>
      </trkpt>
      <trkpt lat="43.27361" lon="0.43078">
        <ele>320.463686</ele>
        <time>2022-07-25T09:24:04.791Z</time>
      </trkpt>
      <trkpt lat="43.27428" lon="0.43227">
        <ele>317.828009</ele>
        <time>2022-07-25T09:24:24.449Z</time>
      </trkpt>
      <trkpt lat="43.27467" lon="0.43316">
        <ele>315.185707</ele>
        <time>2022-07-25T09:24:35.032Z</time>
      </trkpt>
      <trkpt lat="43.27483" lon="0.43362">
        <ele>313.884905</ele>
        <time>2022-07-25T09:24:40.104Z</time>
      </trkpt>
      <trkpt lat="43.27496" lon="0.43416">
        <ele>312.43797</ele>
        <time>2022-07-25T09:24:45.663Z</time>
      </trkpt>
      <trkpt lat="43.27539" lon="0.43603">
        <ele>307.021261</ele>
        <time>2022-07-25T09:25:05.000Z</time>
      </trkpt>
      <trkpt lat="43.27625" lon="0.43963">
        <ele>300.552558</ele>
        <time>2022-07-25T09:25:46.533Z</time>
      </trkpt>
      <trkpt lat="43.27811" lon="0.44759">
        <ele>291.737373</ele>
        <time>2022-07-25T09:27:25.394Z</time>
      </trkpt>
      <trkpt lat="43.27815" lon="0.44776">
        <ele>291.588</ele>
        <time>2022-07-25T09:27:27.676Z</time>
      </trkpt>
      <trkpt lat="43.27825" lon="0.44837">
        <ele>291.103026</ele>
        <time>2022-07-25T09:27:35.867Z</time>
      </trkpt>
      <trkpt lat="43.2783" lon="0.45023">
        <ele>290.450689</ele>
        <time>2022-07-25T09:28:01.621Z</time>
      </trkpt>
      <trkpt lat="43.27833" lon="0.45145">
        <ele>289.954167</ele>
        <time>2022-07-25T09:28:18.061Z</time>
      </trkpt>
      <trkpt lat="43.27839" lon="0.45483">
        <ele>288.540252</ele>
        <time>2022-07-25T09:29:02.265Z</time>
      </trkpt>
      <trkpt lat="43.27898" lon="0.45471">
        <ele>288.225365</ele>
        <time>2022-07-25T09:29:13.571Z</time>
      </trkpt>
      <trkpt lat="43.28056" lon="0.45576">
        <ele>288.093059</ele>
        <time>2022-07-25T09:29:49.526Z</time>
      </trkpt>
      <trkpt lat="43.28108" lon="0.45598">
        <ele>287.968086</ele>
        <time>2022-07-25T09:30:00.854Z</time>
      </trkpt>
      <trkpt lat="43.28221" lon="0.45677">
        <ele>287.645593</ele>
        <time>2022-07-25T09:30:25.768Z</time>
      </trkpt>
      <trkpt lat="43.28232" lon="0.45684">
        <ele>287.572866</ele>
        <time>2022-07-25T09:30:28.046Z</time>
      </trkpt>
      <trkpt lat="43.28298" lon="0.45717">
        <ele>286.924816</ele>
        <time>2022-07-25T09:30:40.194Z</time>
      </trkpt>
      <trkpt lat="43.283" lon="0.45719">
        <ele>286.898546</ele>
        <time>2022-07-25T09:30:40.662Z</time>
      </trkpt>
      <trkpt lat="43.28428" lon="0.45782">
        <ele>285.701268</ele>
        <time>2022-07-25T09:31:03.564Z</time>
      </trkpt>
      <trkpt lat="43.28455" lon="0.45786">
        <ele>285.493631</ele>
        <time>2022-07-25T09:31:08.091Z</time>
      </trkpt>
      <trkpt lat="43.28475" lon="0.45818">
        <ele>285.258962</ele>
        <time>2022-07-25T09:31:15.565Z</time>
      </trkpt>
      <trkpt lat="43.28475" lon="0.45843">
        <ele>285.120888</ele>
        <time>2022-07-25T09:31:20.111Z</time>
      </trkpt>
      <trkpt lat="43.28471" lon="0.4584">
        <ele>285.083061</ele>
        <time>2022-07-25T09:31:27.636Z</time>
      </trkpt>
      <trkpt lat="43.28469" lon="0.45844">
        <ele>285.054529</ele>
        <time>2022-07-25T09:31:30.250Z</time>
      </trkpt>
      <trkpt lat="43.28446" lon="0.45833">
        <ele>284.863073</ele>
        <time>2022-07-25T09:31:47.856Z</time>
      </trkpt>
      <trkpt lat="43.28469" lon="0.45844">
        <ele>284.671617</ele>
        <time>2022-07-25T09:32:05.462Z</time>
      </trkpt>
      <trkpt lat="43.28471" lon="0.4584">
        <ele>284.643085</ele>
        <time>2022-07-25T09:32:08.076Z</time>
      </trkpt>
      <trkpt lat="43.28475" lon="0.45843">
        <ele>284.605259</ele>
        <time>2022-07-25T09:32:15.936Z</time>
      </trkpt>
      <trkpt lat="43.28481" lon="0.45855">
        <ele>284.57965</ele>
        <time>2022-07-25T09:32:18.788Z</time>
      </trkpt>
      <trkpt lat="43.28512" lon="0.4588">
        <ele>284.501704</ele>
        <time>2022-07-25T09:32:29.450Z</time>
      </trkpt>
      <trkpt lat="43.28591" lon="0.45972">
        <ele>284.277557</ele>
        <time>2022-07-25T09:32:57.385Z</time>
      </trkpt>
      <trkpt lat="43.28628" lon="0.46004">
        <ele>284.139611</ele>
        <time>2022-07-25T09:33:09.171Z</time>
      </trkpt>
      <trkpt lat="43.28653" lon="0.46025">
        <ele>283.976309</ele>
        <time>2022-07-25T09:33:17.210Z</time>
      </trkpt>
      <trkpt lat="43.28676" lon="0.46042">
        <ele>283.836237</ele>
        <time>2022-07-25T09:33:23.852Z</time>
      </trkpt>
      <trkpt lat="43.28749" lon="0.46072">
        <ele>283.415131</ele>
        <time>2022-07-25T09:33:43.202Z</time>
      </trkpt>
      <trkpt lat="43.2879" lon="0.46097">
        <ele>283.161603</ele>
        <time>2022-07-25T09:33:54.180Z</time>
      </trkpt>
      <trkpt lat="43.28973" lon="0.46271">
        <ele>281.73199</ele>
        <time>2022-07-25T09:34:51.531Z</time>
      </trkpt>
      <trkpt lat="43.29023" lon="0.46283">
        <ele>281.374616</ele>
        <time>2022-07-25T09:35:04.323Z</time>
      </trkpt>
      <trkpt lat="43.29038" lon="0.46275">
        <ele>281.256791</ele>
        <time>2022-07-25T09:35:08.543Z</time>
      </trkpt>
      <trkpt lat="43.29047" lon="0.46259">
        <ele>281.151579</ele>
        <time>2022-07-25T09:35:12.209Z</time>
      </trkpt>
      <trkpt lat="43.29058" lon="0.46253">
        <ele>281.070357</ele>
        <time>2022-07-25T09:35:14.862Z</time>
      </trkpt>
      <trkpt lat="43.2907" lon="0.46259">
        <ele>280.979792</ele>
        <time>2022-07-25T09:35:18.215Z</time>
      </trkpt>
      <trkpt lat="43.2908" lon="0.46293">
        <ele>280.7726</ele>
        <time>2022-07-25T09:35:24.482Z</time>
      </trkpt>
      <trkpt lat="43.29088" lon="0.46305">
        <ele>280.648419</ele>
        <time>2022-07-25T09:35:27.675Z</time>
      </trkpt>
      <trkpt lat="43.29187" lon="0.46331">
        <ele>279.609096</ele>
        <time>2022-07-25T09:35:52.063Z</time>
      </trkpt>
      <trkpt lat="43.29228" lon="0.46329">
        <ele>279.184172</ele>
        <time>2022-07-25T09:36:02.081Z</time>
      </trkpt>
      <trkpt lat="43.29259" lon="0.46321">
        <ele>278.863174</ele>
        <time>2022-07-25T09:36:09.479Z</time>
      </trkpt>
      <trkpt lat="43.29276" lon="0.46324">
        <ele>278.698572</ele>
        <time>2022-07-25T09:36:13.532Z</time>
      </trkpt>
      <trkpt lat="43.29331" lon="0.46364">
        <ele>278.103386</ele>
        <time>2022-07-25T09:36:28.536Z</time>
      </trkpt>
      <trkpt lat="43.2952" lon="0.4641">
        <ele>276.675592</ele>
        <time>2022-07-25T09:37:16.786Z</time>
      </trkpt>
      <trkpt lat="43.29622" lon="0.46411">
        <ele>276.521769</ele>
        <time>2022-07-25T09:37:43.440Z</time>
      </trkpt>
      <trkpt lat="43.29685" lon="0.46432">
        <ele>277.256391</ele>
        <time>2022-07-25T09:38:02.095Z</time>
      </trkpt>
      <trkpt lat="43.29879" lon="0.46405">
        <ele>284.14833</ele>
        <time>2022-07-25T09:39:23.182Z</time>
      </trkpt>
      <trkpt lat="43.29878" lon="0.46408">
        <ele>284.251226</ele>
        <time>2022-07-25T09:39:24.352Z</time>
      </trkpt>
      <trkpt lat="43.29871" lon="0.46493">
        <ele>287.769117</ele>
        <time>2022-07-25T09:40:12.250Z</time>
      </trkpt>
      <trkpt lat="43.29865" lon="0.46568">
        <ele>292.603451</ele>
        <time>2022-07-25T09:40:55.268Z</time>
      </trkpt>
      <trkpt lat="43.29863" lon="0.46599">
        <ele>294.817805</ele>
        <time>2022-07-25T09:41:13.229Z</time>
      </trkpt>
      <trkpt lat="43.29863" lon="0.46632">
        <ele>297.143562</ele>
        <time>2022-07-25T09:41:32.514Z</time>
      </trkpt>
      <trkpt lat="43.29871" lon="0.46653">
        <ele>298.811412</ele>
        <time>2022-07-25T09:41:45.682Z</time>
      </trkpt>
      <trkpt lat="43.29886" lon="0.4667">
        <ele>300.652617</ele>
        <time>2022-07-25T09:42:00.479Z</time>
      </trkpt>
      <trkpt lat="43.29919" lon="0.46691">
        <ele>304.238766</ele>
        <time>2022-07-25T09:42:28.229Z</time>
      </trkpt>
      <trkpt lat="43.2996" lon="0.46707">
        <ele>307.360745</ele>
        <time>2022-07-25T09:42:57.077Z</time>
      </trkpt>
      <trkpt lat="43.30018" lon="0.46721">
        <ele>310.785652</ele>
        <time>2022-07-25T09:43:29.611Z</time>
      </trkpt>
      <trkpt lat="43.3007" lon="0.46742">
        <ele>313.944866</ele>
        <time>2022-07-25T09:43:52.177Z</time>
      </trkpt>
      <trkpt lat="43.30118" lon="0.46749">
        <ele>316.847092</ele>
        <time>2022-07-25T09:44:15.518Z</time>
      </trkpt>
      <trkpt lat="43.30187" lon="0.46758">
        <ele>321.065092</ele>
        <time>2022-07-25T09:44:52.082Z</time>
      </trkpt>
      <trkpt lat="43.30276" lon="0.46805">
        <ele>326.857142</ele>
        <time>2022-07-25T09:45:47.947Z</time>
      </trkpt>
      <trkpt lat="43.30338" lon="0.46824">
        <ele>330.372551</ele>
        <time>2022-07-25T09:46:24.143Z</time>
      </trkpt>
      <trkpt lat="43.3037" lon="0.46844">
        <ele>332.284247</ele>
        <time>2022-07-25T09:46:43.101Z</time>
      </trkpt>
      <trkpt lat="43.30423" lon="0.46888">
        <ele>335.67573</ele>
        <time>2022-07-25T09:47:13.603Z</time>
      </trkpt>
      <trkpt lat="43.30488" lon="0.4695">
        <ele>338.586252</ele>
        <time>2022-07-25T09:47:47.495Z</time>
      </trkpt>
      <trkpt lat="43.30439" lon="0.46951">
        <ele>339.957892</ele>
        <time>2022-07-25T09:48:09.533Z</time>
      </trkpt>
      <trkpt lat="43.30421" lon="0.46967">
        <ele>340.55313</ele>
        <time>2022-07-25T09:48:19.305Z</time>
      </trkpt>
      <trkpt lat="43.30414" lon="0.4698">
        <ele>340.880516</ele>
        <time>2022-07-25T09:48:24.161Z</time>
      </trkpt>
      <trkpt lat="43.30409" lon="0.46985">
        <ele>341.05398</ele>
        <time>2022-07-25T09:48:26.173Z</time>
      </trkpt>
      <trkpt lat="43.30347" lon="0.46965">
        <ele>341.730517</ele>
        <time>2022-07-25T09:48:44.730Z</time>
      </trkpt>
      <trkpt lat="43.30279" lon="0.46964">
        <ele>340.612297</ele>
        <time>2022-07-25T09:48:57.589Z</time>
      </trkpt>
      <trkpt lat="43.30259" lon="0.46967">
        <ele>340.290836</ele>
        <time>2022-07-25T09:49:00.531Z</time>
      </trkpt>
      <trkpt lat="43.30244" lon="0.46979">
        <ele>339.999057</ele>
        <time>2022-07-25T09:49:03.194Z</time>
      </trkpt>
      <trkpt lat="43.30245" lon="0.47003">
        <ele>339.709209</ele>
        <time>2022-07-25T09:49:06.748Z</time>
      </trkpt>
      <trkpt lat="43.30247" lon="0.47022">
        <ele>339.478285</ele>
        <time>2022-07-25T09:49:09.508Z</time>
      </trkpt>
      <trkpt lat="43.30259" lon="0.47069">
        <ele>337.988879</ele>
        <time>2022-07-25T09:49:16.416Z</time>
      </trkpt>
      <trkpt lat="43.30282" lon="0.47091">
        <ele>336.180152</ele>
        <time>2022-07-25T09:49:21.503Z</time>
      </trkpt>
      <trkpt lat="43.30306" lon="0.4709">
        <ele>334.656023</ele>
        <time>2022-07-25T09:49:25.702Z</time>
      </trkpt>
      <trkpt lat="43.30319" lon="0.47202">
        <ele>329.289501</ele>
        <time>2022-07-25T09:49:40.519Z</time>
      </trkpt>
      <trkpt lat="43.30316" lon="0.4721">
        <ele>328.851241</ele>
        <time>2022-07-25T09:49:41.348Z</time>
      </trkpt>
      <trkpt lat="43.30299" lon="0.47247">
        <ele>326.669183</ele>
        <time>2022-07-25T09:49:45.351Z</time>
      </trkpt>
      <trkpt lat="43.30307" lon="0.47246">
        <ele>326.07999</ele>
        <time>2022-07-25T09:49:46.646Z</time>
      </trkpt>
      <trkpt lat="43.3033" lon="0.47224">
        <ele>323.941635</ele>
        <time>2022-07-25T09:49:51.641Z</time>
      </trkpt>
      <trkpt lat="43.30343" lon="0.47321">
        <ele>318.475732</ele>
        <time>2022-07-25T09:50:04.243Z</time>
      </trkpt>
      <trkpt lat="43.30341" lon="0.47376">
        <ele>315.387628</ele>
        <time>2022-07-25T09:50:11.398Z</time>
      </trkpt>
      <trkpt lat="43.30315" lon="0.47467">
        <ele>310.56082</ele>
        <time>2022-07-25T09:50:24.153Z</time>
      </trkpt>
      <trkpt lat="43.30307" lon="0.47536">
        <ele>307.305899</ele>
        <time>2022-07-25T09:50:33.233Z</time>
      </trkpt>
      <trkpt lat="43.30306" lon="0.47541">
        <ele>307.074119</ele>
        <time>2022-07-25T09:50:33.893Z</time>
      </trkpt>
      <trkpt lat="43.30304" lon="0.47614">
        <ele>303.647175</ele>
        <time>2022-07-25T09:50:43.552Z</time>
      </trkpt>
      <trkpt lat="43.30308" lon="0.4769">
        <ele>300.783552</ele>
        <time>2022-07-25T09:50:54.166Z</time>
      </trkpt>
      <trkpt lat="43.3032" lon="0.47718">
        <ele>299.796938</ele>
        <time>2022-07-25T09:50:58.797Z</time>
      </trkpt>
      <trkpt lat="43.30327" lon="0.4778">
        <ele>297.874209</ele>
        <time>2022-07-25T09:51:08.077Z</time>
      </trkpt>
      <trkpt lat="43.30376" lon="0.47796">
        <ele>295.74851</ele>
        <time>2022-07-25T09:51:17.809Z</time>
      </trkpt>
      <trkpt lat="43.30404" lon="0.47811">
        <ele>294.496717</ele>
        <time>2022-07-25T09:51:23.933Z</time>
      </trkpt>
      <trkpt lat="43.30458" lon="0.4787">
        <ele>291.591081</ele>
        <time>2022-07-25T09:51:37.705Z</time>
      </trkpt>
      <trkpt lat="43.30463" lon="0.47878">
        <ele>291.248546</ele>
        <time>2022-07-25T09:51:44.720Z</time>
      </trkpt>
      <trkpt lat="43.30468" lon="0.47902">
        <ele>290.478368</ele>
        <time>2022-07-25T09:52:02.711Z</time>
      </trkpt>
      <trkpt lat="43.30475" lon="0.48029">
        <ele>286.757547</ele>
        <time>2022-07-25T09:53:28.640Z</time>
      </trkpt>
      <trkpt lat="43.30483" lon="0.4805">
        <ele>286.321298</ele>
        <time>2022-07-25T09:53:45.558Z</time>
      </trkpt>
      <trkpt lat="43.30567" lon="0.4814">
        <ele>283.683195</ele>
        <time>2022-07-25T09:55:28.097Z</time>
      </trkpt>
      <trkpt lat="43.30637" lon="0.48204">
        <ele>284.54225</ele>
        <time>2022-07-25T09:57:04.374Z</time>
      </trkpt>
      <trkpt lat="43.3068" lon="0.48233">
        <ele>286.920486</ele>
        <time>2022-07-25T09:58:07.325Z</time>
      </trkpt>
      <trkpt lat="43.30831" lon="0.48401">
        <ele>298.876823</ele>
        <time>2022-07-25T10:03:11.057Z</time>
      </trkpt>
      <trkpt lat="43.30882" lon="0.4847">
        <ele>303.998181</ele>
        <time>2022-07-25T10:04:59.002Z</time>
      </trkpt>
      <trkpt lat="43.30884" lon="0.48474">
        <ele>304.249834</ele>
        <time>2022-07-25T10:05:03.434Z</time>
      </trkpt>
      <trkpt lat="43.30939" lon="0.48514">
        <ele>307.988019</ele>
        <time>2022-07-25T10:06:29.064Z</time>
      </trkpt>
      <trkpt lat="43.30957" lon="0.48519">
        <ele>309.071814</ele>
        <time>2022-07-25T10:06:52.503Z</time>
      </trkpt>
      <trkpt lat="43.31004" lon="0.48515">
        <ele>311.859419</ele>
        <time>2022-07-25T10:08:01.828Z</time>
      </trkpt>
      <trkpt lat="43.31015" lon="0.48523">
        <ele>312.595592</ele>
        <time>2022-07-25T10:08:18.013Z</time>
      </trkpt>
      <trkpt lat="43.31028" lon="0.4854">
        <ele>313.661871</ele>
        <time>2022-07-25T10:08:45.752Z</time>
      </trkpt>
      <trkpt lat="43.31052" lon="0.48597">
        <ele>317.35642</ele>
        <time>2022-07-25T10:09:58.757Z</time>
      </trkpt>
      <trkpt lat="43.31083" lon="0.48654">
        <ele>322.317447</ele>
        <time>2022-07-25T10:11:19.126Z</time>
      </trkpt>
      <trkpt lat="43.31083" lon="0.4867">
        <ele>323.509204</ele>
        <time>2022-07-25T10:11:46.113Z</time>
      </trkpt>
      <trkpt lat="43.31065" lon="0.48645">
        <ele>325.997613</ele>
        <time>2022-07-25T10:12:02.026Z</time>
      </trkpt>
      <trkpt lat="43.31057" lon="0.48641">
        <ele>326.87803</ele>
        <time>2022-07-25T10:12:13.721Z</time>
      </trkpt>
      <trkpt lat="43.31048" lon="0.48644">
        <ele>327.73444</ele>
        <time>2022-07-25T10:12:19.000Z</time>
      </trkpt>
      <trkpt lat="43.31042" lon="0.48655">
        <ele>328.663781</ele>
        <time>2022-07-25T10:12:23.952Z</time>
      </trkpt>
      <trkpt lat="43.31043" lon="0.48681">
        <ele>330.498278</ele>
        <time>2022-07-25T10:12:44.309Z</time>
      </trkpt>
      <trkpt lat="43.31083" lon="0.48764">
        <ele>335.801667</ele>
        <time>2022-07-25T10:13:42.832Z</time>
      </trkpt>
      <trkpt lat="43.31096" lon="0.48855">
        <ele>339.974456</ele>
        <time>2022-07-25T10:14:19.138Z</time>
      </trkpt>
      <trkpt lat="43.31092" lon="0.4889">
        <ele>341.588533</ele>
        <time>2022-07-25T10:14:32.379Z</time>
      </trkpt>
      <trkpt lat="43.31081" lon="0.48925">
        <ele>343.335523</ele>
        <time>2022-07-25T10:14:42.993Z</time>
      </trkpt>
      <trkpt lat="43.31033" lon="0.49011">
        <ele>342.318466</ele>
        <time>2022-07-25T10:14:58.304Z</time>
      </trkpt>
      <trkpt lat="43.30998" lon="0.49086">
        <ele>340.949205</ele>
        <time>2022-07-25T10:15:07.715Z</time>
      </trkpt>
      <trkpt lat="43.30982" lon="0.49099">
        <ele>340.549459</ele>
        <time>2022-07-25T10:15:10.325Z</time>
      </trkpt>
      <trkpt lat="43.30934" lon="0.49286">
        <ele>332.654067</ele>
        <time>2022-07-25T10:15:28.793Z</time>
      </trkpt>
      <trkpt lat="43.30927" lon="0.49342">
        <ele>330.109529</ele>
        <time>2022-07-25T10:15:33.967Z</time>
      </trkpt>
      <trkpt lat="43.30908" lon="0.49526">
        <ele>322.818805</ele>
        <time>2022-07-25T10:15:51.224Z</time>
      </trkpt>
      <trkpt lat="43.30874" lon="0.4974">
        <ele>316.644984</ele>
        <time>2022-07-25T10:16:13.523Z</time>
      </trkpt>
      <trkpt lat="43.30833" lon="0.49853">
        <ele>313.929349</ele>
        <time>2022-07-25T10:16:27.577Z</time>
      </trkpt>
      <trkpt lat="43.30792" lon="0.50011">
        <ele>310.239134</ele>
        <time>2022-07-25T10:16:45.026Z</time>
      </trkpt>
      <trkpt lat="43.30769" lon="0.50311">
        <ele>303.507788</ele>
        <time>2022-07-25T10:17:15.954Z</time>
      </trkpt>
      <trkpt lat="43.30764" lon="0.50294">
        <ele>303.178597</ele>
        <time>2022-07-25T10:17:29.480Z</time>
      </trkpt>
      <trkpt lat="43.30764" lon="0.50294">
        <ele>303.178597</ele>
        <time>2022-07-25T10:17:29.480Z</time>
      </trkpt>
      <trkpt lat="43.30742" lon="0.50236">
        <ele>303.178597</ele>
        <time>2022-07-25T10:18:18.086Z</time>
      </trkpt>
      <trkpt lat="43.3073" lon="0.50226">
        <ele>303.178597</ele>
        <time>2022-07-25T10:18:32.529Z</time>
      </trkpt>
      <trkpt lat="43.30726" lon="0.50228">
        <ele>303.178597</ele>
        <time>2022-07-25T10:18:37.589Z</time>
      </trkpt>
      <trkpt lat="43.30678" lon="0.50369">
        <ele>303.178597</ele>
        <time>2022-07-25T10:20:40.095Z</time>
      </trkpt>
    </trkseg>
  </trk>
</gpx>